Data Archive--May, 2002

Date Time Current Temp Wind Chill High Temp Low Temp Wind Speed Gust Wind Direction Rain Barometer
05/01/2002 12:00 a 49.4 49.4 49.8 49.1 0.0 0.0 --- 0.00 29.678
05/01/2002 12:30 a 49.1 49.1 49.6 48.5 0.0 0.0 --- 0.00 29.682
05/01/2002 1:00 a 48.0 48.0 48.8 47.5 0.0 0.0 --- 0.00 29.677
05/01/2002 1:30 a 47.9 47.9 48.2 47.6 0.0 0.0 --- 0.00 29.683
05/01/2002 2:00 a 47.4 47.4 47.8 47.1 0.0 0.0 --- 0.00 29.676
05/01/2002 2:30 a 46.9 46.9 47.3 46.1 0.0 0.0 --- 0.00 29.673
05/01/2002 3:00 a 45.8 45.8 46.4 45.3 0.0 0.0 --- 0.00 29.678
05/01/2002 3:30 a 45.0 45.0 45.6 44.2 0.0 0.0 --- 0.00 29.687
05/01/2002 4:00 a 43.8 43.8 44.3 43.4 0.0 0.0 --- 0.00 29.693
05/01/2002 4:30 a 43.3 43.3 43.9 42.3 0.0 0.0 --- 0.00 29.701
05/01/2002 5:00 a 42.7 42.7 43.1 42.2 0.0 0.0 --- 0.00 29.697
05/01/2002 5:30 a 42.3 42.3 42.7 41.7 0.0 0.0 --- 0.00 29.699
05/01/2002 6:00 a 41.3 41.3 42.0 40.0 0.0 0.0 --- 0.00 29.715
05/01/2002 6:30 a 41.1 41.1 41.9 40.0 0.0 0.0 --- 0.00 29.720
05/01/2002 7:00 a 42.2 42.2 42.5 41.9 0.0 0.0 --- 0.00 29.731
05/01/2002 7:30 a 44.6 44.6 46.4 42.4 0.0 0.0 --- 0.00 29.739
05/01/2002 8:00 a 47.6 47.6 48.9 46.3 0.0 0.0 --- 0.00 29.740
05/01/2002 8:30 a 50.2 50.2 51.6 48.9 0.0 0.0 --- 0.00 29.746
05/01/2002 9:00 a 53.0 53.0 54.4 51.6 0.0 0.0 --- 0.00 29.749
05/01/2002 9:30 a 55.7 55.7 56.5 54.4 0.0 1.0 --- 0.00 29.748
05/01/2002 10:00 a 57.5 57.5 58.5 56.4 0.0 5.0 SSE 0.00 29.753
05/01/2002 10:30 a 59.3 59.3 61.0 58.0 0.0 4.0 SSE 0.00 29.747
05/01/2002 11:00 a 61.4 61.4 62.8 60.4 0.0 6.0 SSE 0.00 29.749
05/01/2002 11:30 a 63.4 63.4 65.1 62.0 0.0 5.0 E 0.00 29.744
05/01/2002 12:00 p 64.9 64.9 66.6 63.7 0.0 5.0 SE 0.00 29.730
05/01/2002 12:30 p 66.1 66.1 67.3 65.1 0.0 5.0 SSE 0.00 29.730
05/01/2002 1:00 p 66.8 66.8 68.1 65.8 0.0 7.0 SSE 0.00 29.724
05/01/2002 1:30 p 68.0 68.0 69.2 66.7 0.0 6.0 SSE 0.00 29.723
05/01/2002 2:00 p 67.7 67.7 69.4 65.6 1.0 7.0 SSE 0.00 29.722
05/01/2002 2:30 p 68.2 68.2 70.0 65.4 0.0 5.0 SSE 0.00 29.710
05/01/2002 3:00 p 69.4 69.4 70.5 68.0 0.0 6.0 SSE 0.00 29.702
05/01/2002 3:30 p 69.5 69.5 70.4 68.5 0.0 5.0 SSE 0.00 29.692
05/01/2002 4:00 p 69.8 69.8 70.5 69.1 0.0 4.0 SSE 0.00 29.696
05/01/2002 4:30 p 69.3 69.3 70.1 68.5 0.0 5.0 SSE 0.00 29.698
05/01/2002 5:00 p 68.0 68.0 68.9 67.3 0.0 3.0 SSE 0.00 29.696
05/01/2002 5:30 p 67.8 67.8 68.5 67.1 0.0 5.0 SSE 0.00 29.698
05/01/2002 6:00 p 67.3 67.3 67.8 66.6 0.0 0.0 --- 0.00 29.699
05/01/2002 6:30 p 65.9 65.9 67.0 64.7 0.0 0.0 --- 0.00 29.698
05/01/2002 7:00 p 65.2 65.2 65.7 64.3 0.0 0.0 --- 0.00 29.711
05/01/2002 7:30 p 63.5 63.5 64.3 62.2 0.0 0.0 --- 0.00 29.719
05/01/2002 8:00 p 61.3 61.3 62.2 60.5 0.0 0.0 --- 0.00 29.733
05/01/2002 8:30 p 59.6 59.6 60.5 59.0 0.0 0.0 --- 0.00 29.737
05/01/2002 9:00 p 59.8 59.8 61.8 57.8 0.0 0.0 --- 0.00 29.748
05/01/2002 9:30 p 57.3 57.3 62.0 56.0 0.0 0.0 --- 0.00 29.762
05/01/2002 10:00 p 56.1 56.1 56.5 55.5 0.0 0.0 --- 0.00 29.759
05/01/2002 10:30 p 55.2 55.2 55.6 54.8 0.0 0.0 --- 0.00 29.755
05/01/2002 11:00 p 54.1 54.1 55.0 52.9 0.0 0.0 --- 0.00 29.750
05/01/2002 11:30 p 53.7 53.7 53.9 53.3 0.0 0.0 --- 0.00 29.759
05/02/2002 12:00 a 53.9 53.9 54.2 53.6 0.0 0.0 --- 0.00 29.757
05/02/2002 12:30 a 53.8 53.8 54.2 53.3 0.0 0.0 --- 0.00 29.753
05/02/2002 1:00 a 53.5 53.5 53.9 53.2 0.0 0.0 --- 0.00 29.740
05/02/2002 1:30 a 54.0 54.0 54.2 53.6 0.0 0.0 --- 0.00 29.728
05/02/2002 2:00 a 54.5 54.5 54.7 53.9 0.0 0.0 --- 0.00 29.714
05/02/2002 2:30 a 54.4 54.4 54.6 54.2 0.0 0.0 --- 0.00 29.690
05/02/2002 3:00 a 54.5 54.5 54.9 54.2 0.0 0.0 --- 0.00 29.696
05/02/2002 3:30 a 54.4 54.4 55.1 53.1 0.0 0.0 --- 0.00 29.709
05/02/2002 4:00 a 53.2 53.2 53.7 52.7 0.0 0.0 --- 0.00 29.696
05/02/2002 4:30 a 52.9 52.9 53.5 52.2 0.0 0.0 --- 0.00 29.668
05/02/2002 5:00 a 52.7 52.7 53.1 52.3 0.0 1.0 --- 0.00 29.677
05/02/2002 5:30 a 52.7 52.7 53.0 52.5 0.0 0.0 --- 0.00 29.634
05/02/2002 6:00 a 52.6 52.6 52.8 52.4 0.0 0.0 --- 0.00 29.619
05/02/2002 6:30 a 52.5 52.5 52.8 52.3 0.0 0.0 --- 0.00 29.604
05/02/2002 7:00 a 52.3 52.3 52.7 52.0 0.0 3.0 --- 0.00 29.594
05/02/2002 7:30 a 51.7 51.7 52.3 51.3 0.0 3.0 NW 0.00 29.568
05/02/2002 8:00 a 51.7 51.7 52.3 51.3 0.0 0.0 --- 0.00 29.554
05/02/2002 8:30 a 51.9 51.9 52.1 51.6 0.0 2.0 NW 0.00 29.549
05/02/2002 9:00 a 50.8 50.8 51.5 50.2 0.0 3.0 NNE 0.00 29.561
05/02/2002 9:30 a 49.9 49.9 50.3 49.6 0.0 1.0 ESE 0.00 29.529
05/02/2002 10:00 a 49.7 49.7 49.9 49.4 0.0 1.0 ESE 0.00 29.490
05/02/2002 10:30 a 50.5 50.5 51.2 49.7 0.0 0.0 --- 0.00 29.472
05/02/2002 11:00 a 51.4 51.4 52.2 51.0 0.0 0.0 --- 0.00 29.450
05/02/2002 11:30 a 52.8 52.8 53.3 52.1 0.0 0.0 --- 0.00 29.426
05/02/2002 12:00 p 53.6 53.6 54.1 53.0 0.0 0.0 --- 0.00 29.398
05/02/2002 12:30 p 54.7 54.7 55.2 54.1 0.0 0.0 --- 0.00 29.392
05/02/2002 1:00 p 54.9 54.9 55.3 54.4 0.0 0.0 --- 0.00 29.381
05/02/2002 1:30 p 55.7 55.7 56.3 55.1 0.0 0.0 --- 0.00 29.379
05/02/2002 2:00 p 56.2 56.2 56.7 55.9 0.0 0.0 --- 0.00 29.376
05/02/2002 2:30 p 57.2 57.2 58.0 56.6 0.0 0.0 --- 0.00 29.358
05/02/2002 3:00 p 58.0 58.0 58.7 57.5 0.0 0.0 --- 0.00 29.343
05/02/2002 3:30 p 60.3 60.3 62.9 58.7 0.0 0.0 --- 0.00 29.337
05/02/2002 4:00 p 62.5 62.5 63.1 61.8 0.0 0.0 --- 0.00 29.315
05/02/2002 4:30 p 62.6 62.6 63.5 61.7 0.0 0.0 --- 0.00 29.318
05/02/2002 5:00 p 62.1 62.1 63.4 61.0 0.0 0.0 --- 0.00 29.314
05/02/2002 5:30 p 62.0 62.0 63.8 60.2 0.0 0.0 --- 0.00 29.312
05/02/2002 6:00 p 61.5 61.5 62.8 60.3 0.0 0.0 --- 0.00 29.333
05/02/2002 6:30 p 60.3 60.3 62.1 58.8 0.0 0.0 --- 0.00 29.328
05/02/2002 7:00 p 60.4 60.4 61.8 59.6 0.0 0.0 --- 0.00 29.328
05/02/2002 7:30 p 60.0 60.0 61.7 58.9 0.0 0.0 --- 0.00 29.303
05/02/2002 8:00 p 59.0 59.0 61.4 57.4 0.0 0.0 --- 0.00 29.317
05/02/2002 8:30 p 57.4 57.4 57.9 57.0 0.0 0.0 --- 0.00 29.320
05/02/2002 9:00 p 57.5 57.5 57.7 57.2 0.0 0.0 --- 0.00 29.307
05/02/2002 9:30 p 56.6 56.6 57.2 56.2 0.0 0.0 --- 0.40 29.294
05/02/2002 10:00 p 56.2 56.2 56.3 56.0 0.0 0.0 --- 0.00 29.320
05/02/2002 10:30 p 56.2 56.2 56.3 56.0 0.0 4.0 SE 0.00 29.337
05/02/2002 11:00 p 56.5 56.5 56.7 56.3 0.0 0.0 --- 0.00 29.332
05/02/2002 11:30 p 56.7 56.7 56.9 56.2 0.0 0.0 --- 0.00 29.337
05/03/2002 12:00 a 56.7 56.7 57.0 56.2 0.0 0.0 --- 0.00 29.364
05/03/2002 12:30 a 56.6 56.6 56.9 56.4 0.0 0.0 --- 0.00 29.390
05/03/2002 1:00 a 57.2 57.2 58.1 56.3 0.0 4.0 SSE 0.00 29.407
05/03/2002 1:30 a 57.7 57.7 58.1 57.3 0.0 5.0 SSE 0.00 29.426
05/03/2002 2:00 a 56.9 56.9 57.3 56.4 0.0 0.0 --- 0.00 29.433
05/03/2002 2:30 a 56.2 56.2 56.6 55.9 0.0 3.0 SSE 0.00 29.456
05/03/2002 3:00 a 56.4 56.4 56.8 56.1 0.0 0.0 --- 0.00 29.470
05/03/2002 3:30 a 56.1 56.1 56.3 55.7 0.0 1.0 --- 0.00 29.482
05/03/2002 4:00 a 55.8 55.8 56.2 55.4 0.0 4.0 S 0.00 29.494
05/03/2002 4:30 a 55.3 55.3 55.7 54.8 0.0 5.0 SE 0.00 29.510
05/03/2002 5:00 a 54.5 54.5 55.0 54.0 0.0 4.0 SE 0.00 29.530
05/03/2002 5:30 a 53.8 53.8 54.2 53.5 0.0 4.0 NNE 0.00 29.544
05/03/2002 6:00 a 53.4 53.4 53.8 53.0 1.0 5.0 SE 0.00 29.558
05/03/2002 6:30 a 52.8 52.8 53.4 52.2 0.0 6.0 SE 0.00 29.585
05/03/2002 7:00 a 52.1 52.1 52.3 51.9 0.0 7.0 NW 0.00 29.623
05/03/2002 7:30 a 52.8 52.8 53.4 52.2 1.0 8.0 SSE 0.00 29.642
05/03/2002 8:00 a 53.3 53.3 53.8 52.8 1.0 7.0 SSE 0.00 29.659
05/03/2002 8:30 a 53.1 53.1 53.9 52.6 0.0 11.0 SSE 0.00 29.670
05/03/2002 9:00 a 53.8 53.8 54.5 52.8 0.0 5.0 SSE 0.00 29.673
05/03/2002 9:30 a 54.8 54.8 55.8 54.1 1.0 7.0 SSE 0.00 29.679
05/03/2002 10:00 a 55.5 55.5 56.3 54.7 2.0 8.0 SSE 0.00 29.689
05/03/2002 10:30 a 56.3 56.3 57.5 55.2 2.0 11.0 SSE 0.00 29.688
05/03/2002 11:00 a 57.7 57.7 58.7 56.3 1.0 10.0 SE 0.00 29.688
05/03/2002 11:30 a 58.8 58.8 60.4 57.6 2.0 7.0 SSE 0.00 29.690
05/03/2002 12:00 p 59.9 59.9 61.3 58.8 2.0 10.0 SSE 0.00 29.681
05/03/2002 12:30 p 61.3 61.3 62.4 59.9 2.0 9.0 SSE 0.00 29.675
05/03/2002 1:00 p 61.8 61.8 63.4 60.4 3.0 13.0 SSE 0.00 29.686
05/03/2002 1:30 p 62.3 62.3 63.9 61.3 3.0 12.0 SSE 0.00 29.682
05/03/2002 2:00 p 61.9 61.9 64.4 59.7 3.0 10.0 SSE 0.00 29.694
05/03/2002 2:30 p 63.9 63.9 65.5 61.5 2.0 10.0 SSE 0.00 29.708
05/03/2002 3:00 p 63.9 63.9 66.0 62.4 2.0 9.0 SSE 0.00 29.720
05/03/2002 3:30 p 63.3 63.3 64.6 61.9 1.0 10.0 SE 0.00 29.726
05/03/2002 4:00 p 62.0 62.0 64.3 59.4 2.0 12.0 SSE 0.00 29.735
05/03/2002 4:30 p 60.7 60.7 62.3 59.4 2.0 10.0 SSE 0.00 29.752
05/03/2002 5:00 p 60.6 60.6 61.1 60.1 2.0 12.0 SSE 0.00 29.773
05/03/2002 5:30 p 59.7 59.7 60.8 59.1 2.0 10.0 SSE 0.00 29.793
05/03/2002 6:00 p 59.0 59.0 59.4 58.6 1.0 11.0 SSE 0.00 29.822
05/03/2002 6:30 p 58.2 58.2 58.6 57.7 1.0 9.0 SSE 0.00 29.831
05/03/2002 7:00 p 57.3 57.3 57.7 56.6 1.0 10.0 SSE 0.00 29.846
05/03/2002 7:30 p 56.1 56.1 56.6 55.8 1.0 10.0 SSE 0.00 29.861
05/03/2002 8:00 p 55.4 55.4 55.8 54.9 1.0 11.0 SSE 0.00 29.883
05/03/2002 8:30 p 54.3 54.3 54.9 53.8 0.0 5.0 SSE 0.00 29.913
05/03/2002 9:00 p 53.5 53.5 53.9 53.0 0.0 5.0 SSE 0.00 29.939
05/03/2002 9:30 p 52.7 52.7 53.1 52.3 0.0 3.0 SSE 0.00 29.960
05/03/2002 10:00 p 52.0 52.0 52.5 51.4 0.0 8.0 SE 0.00 29.978
05/03/2002 10:30 p 51.1 51.1 51.5 50.6 0.0 0.0 --- 0.00 29.984
05/03/2002 11:00 p 50.6 50.6 50.9 50.0 0.0 5.0 SSE 0.00 29.995
05/03/2002 11:30 p 49.7 49.7 50.6 48.5 0.0 3.0 SSE 0.00 30.013
05/04/2002 12:00 a 47.7 47.7 48.5 46.9 0.0 0.0 --- 0.00 30.033
05/04/2002 12:30 a 47.7 47.7 48.1 47.2 0.0 0.0 --- 0.00 30.042
05/04/2002 1:00 a 47.3 47.3 48.0 46.5 0.0 0.0 --- 0.00 30.047
05/04/2002 1:30 a 45.5 45.5 46.7 44.6 0.0 0.0 --- 0.00 30.058
05/04/2002 2:00 a 43.9 43.9 44.8 43.1 0.0 0.0 --- 0.00 30.072
05/04/2002 2:30 a 42.6 42.6 44.9 41.0 0.0 0.0 --- 0.00 30.085
05/04/2002 3:00 a 41.5 41.5 42.5 40.6 0.0 0.0 --- 0.00 30.090
05/04/2002 3:30 a 40.7 40.7 41.4 39.8 0.0 0.0 --- 0.00 30.103
05/04/2002 4:00 a 40.3 40.3 40.7 39.9 0.0 0.0 --- 0.00 30.111
05/04/2002 4:30 a 39.9 39.9 40.4 39.5 0.0 0.0 --- 0.00 30.123
05/04/2002 5:00 a 40.0 40.0 40.4 39.6 0.0 0.0 --- 0.00 30.136
05/04/2002 5:30 a 39.7 39.7 40.3 38.5 0.0 0.0 --- 0.00 30.137
05/04/2002 6:00 a 39.2 39.2 39.9 38.5 0.0 0.0 --- 0.00 30.148
05/04/2002 6:30 a 39.8 39.8 40.3 39.4 0.0 0.0 --- 0.00 30.150
05/04/2002 7:00 a 40.5 40.5 41.7 40.1 0.0 0.0 --- 0.00 30.160
05/04/2002 7:30 a 43.8 43.8 46.3 41.7 0.0 0.0 --- 0.00 30.171
05/04/2002 8:00 a 48.2 48.2 49.7 46.2 0.0 4.0 SSE 0.00 30.169
05/04/2002 8:30 a 50.2 50.2 51.4 49.5 0.0 5.0 SSE 0.00 30.190
05/04/2002 9:00 a 52.3 52.3 53.7 51.1 0.0 0.0 --- 0.00 30.207
05/04/2002 9:30 a 54.7 54.7 55.6 53.1 0.0 0.0 --- 0.00 30.201
05/04/2002 10:00 a 57.4 57.4 59.3 55.8 0.0 0.0 --- 0.00 30.204
05/04/2002 10:30 a 60.4 60.4 62.3 59.3 0.0 0.0 --- 0.00 30.206
05/04/2002 11:00 a 62.5 62.5 63.2 60.9 0.0 0.0 --- 0.00 30.191
05/04/2002 11:30 a 63.1 63.1 64.9 61.9 0.0 3.0 SSE 0.00 30.183
05/04/2002 12:00 p 65.3 65.3 66.7 63.4 0.0 0.0 --- 0.00 30.169
05/04/2002 12:30 p 66.3 66.3 68.6 64.2 0.0 4.0 SSE 0.00 30.163
05/04/2002 1:00 p 68.0 68.0 69.4 66.8 0.0 2.0 SSE 0.00 30.151
05/04/2002 1:30 p 69.4 69.4 70.5 68.0 0.0 1.0 --- 0.00 30.132
05/04/2002 2:00 p 70.1 70.1 70.7 69.3 0.0 0.0 --- 0.00 30.117
05/04/2002 2:30 p 70.3 70.3 71.7 68.5 0.0 3.0 SSE 0.00 30.112
05/04/2002 3:00 p 70.8 70.8 72.0 69.6 0.0 3.0 SSE 0.00 30.104
05/04/2002 3:30 p 70.8 70.8 72.9 68.9 0.0 1.0 S 0.00 30.085
05/04/2002 4:00 p 70.5 70.5 72.7 69.5 0.0 4.0 SSE 0.00 30.072
05/04/2002 4:30 p 68.9 68.9 70.4 66.7 0.0 1.0 --- 0.00 30.062
05/04/2002 5:00 p 68.0 68.0 68.8 66.5 0.0 1.0 --- 0.00 30.053
05/04/2002 5:30 p 66.6 66.6 67.5 65.9 0.0 3.0 SSE 0.00 30.044
05/04/2002 6:00 p 65.4 65.4 66.3 64.6 0.0 0.0 --- 0.00 30.041
05/04/2002 6:30 p 66.2 66.2 67.7 64.6 0.0 0.0 --- 0.00 30.054
05/04/2002 7:00 p 64.7 64.7 68.3 62.4 0.0 0.0 --- 0.00 30.061
05/04/2002 7:30 p 61.6 61.6 62.4 61.0 0.0 0.0 --- 0.00 30.052
05/04/2002 8:00 p 59.9 59.9 61.0 58.7 0.0 0.0 --- 0.00 30.060
05/04/2002 8:30 p 59.2 59.2 59.6 58.7 0.0 2.0 SSE 0.00 30.078
05/04/2002 9:00 p 58.5 58.5 58.8 58.2 0.0 0.0 --- 0.00 30.086
05/04/2002 9:30 p 58.3 58.3 58.4 58.0 0.0 0.0 --- 0.00 30.077
05/04/2002 10:00 p 57.6 57.6 58.0 57.3 0.0 0.0 --- 0.00 30.083
05/04/2002 10:30 p 56.7 56.7 57.4 56.2 0.0 0.0 --- 0.00 30.085
05/04/2002 11:00 p 55.8 55.8 56.2 55.5 0.0 0.0 --- 0.00 30.075
05/04/2002 11:30 p 55.2 55.2 55.8 53.9 0.0 0.0 --- 0.00 30.087
05/05/2002 12:00 a 53.0 53.0 53.9 52.4 0.0 0.0 --- 0.00 30.090
05/05/2002 12:30 a 52.1 52.1 52.7 51.5 0.0 0.0 --- 0.00 30.102
05/05/2002 1:00 a 51.5 51.5 51.8 51.1 0.0 0.0 --- 0.00 30.104
05/05/2002 1:30 a 51.8 51.8 52.4 51.1 0.0 0.0 --- 0.00 30.098
05/05/2002 2:00 a 52.2 52.2 52.5 51.9 0.0 0.0 --- 0.00 30.090
05/05/2002 2:30 a 51.9 51.9 52.1 51.4 0.0 0.0 --- 0.00 30.087
05/05/2002 3:00 a 51.2 51.2 51.4 51.0 0.0 0.0 --- 0.00 30.095
05/05/2002 3:30 a 51.2 51.2 51.5 50.9 0.0 0.0 --- 0.00 30.094
05/05/2002 4:00 a 50.6 50.6 51.3 49.9 0.0 0.0 --- 0.00 30.086
05/05/2002 4:30 a 49.1 49.1 50.1 48.6 0.0 0.0 --- 0.00 30.088
05/05/2002 5:00 a 47.9 47.9 48.6 47.1 0.0 0.0 --- 0.00 30.095
05/05/2002 5:30 a 46.8 46.8 47.4 46.1 0.0 0.0 --- 0.00 30.100
05/05/2002 6:00 a 45.5 45.5 46.1 44.8 0.0 0.0 --- 0.00 30.108
05/05/2002 6:30 a 45.1 45.1 45.5 44.5 0.0 0.0 --- 0.00 30.118
05/05/2002 7:00 a 46.3 46.3 47.3 45.4 0.0 0.0 --- 0.00 30.125
05/05/2002 7:30 a 49.7 49.7 51.6 47.3 0.0 0.0 --- 0.00 30.131
05/05/2002 8:00 a 52.5 52.5 53.8 51.6 0.0 0.0 --- 0.00 30.138
05/05/2002 8:30 a 54.6 54.6 55.6 53.8 0.0 0.0 --- 0.00 30.136
05/05/2002 9:00 a 57.0 57.0 58.3 55.6 0.0 0.0 --- 0.00 30.139
05/05/2002 9:30 a 59.0 59.0 60.3 58.3 0.0 0.0 --- 0.00 30.134
05/05/2002 10:00 a 62.5 62.5 64.0 60.3 0.0 0.0 --- 0.00 30.139
05/05/2002 10:30 a 64.9 64.9 65.8 63.6 0.0 1.0 --- 0.00 30.132
05/05/2002 11:00 a 66.6 66.6 67.8 65.2 0.0 0.0 --- 0.00 30.131
05/05/2002 11:30 a 68.7 68.7 70.2 67.3 0.0 4.0 SSE 0.00 30.133
05/05/2002 12:00 p 69.8 69.8 71.4 68.4 0.0 0.0 --- 0.00 30.126
05/05/2002 12:30 p 71.5 71.5 72.9 70.4 0.0 1.0 SSE 0.00 30.116
05/05/2002 1:00 p 72.7 72.7 73.9 71.1 0.0 3.0 SSE 0.00 30.111
05/05/2002 1:30 p 74.1 74.1 76.4 72.2 0.0 3.0 WNW 0.00 30.106
05/05/2002 2:00 p 74.4 74.4 76.2 72.8 0.0 4.0 NW 0.00 30.100
05/05/2002 2:30 p 74.2 74.2 76.0 71.8 0.0 0.0 --- 0.00 30.093
05/05/2002 3:00 p 75.0 75.0 76.1 73.5 0.0 0.0 --- 0.00 30.092
05/05/2002 3:30 p 74.7 74.7 75.4 73.6 0.0 1.0 --- 0.00 30.083
05/05/2002 4:00 p 74.7 74.7 75.5 73.6 0.0 0.0 --- 0.00 30.076
05/05/2002 4:30 p 74.6 74.6 76.3 73.3 0.0 3.0 NNW 0.00 30.074
05/05/2002 5:00 p 73.6 73.6 75.1 72.4 0.0 4.0 NNW 0.00 30.075
05/05/2002 5:30 p 71.2 71.2 72.4 70.6 0.0 0.0 --- 0.00 30.070
05/05/2002 6:00 p 70.0 70.0 70.9 69.5 0.0 0.0 --- 0.00 30.068
05/05/2002 6:30 p 69.8 69.8 71.2 69.2 0.0 0.0 --- 0.00 30.071
05/05/2002 7:00 p 70.0 70.0 72.0 67.4 0.0 0.0 --- 0.00 30.075
05/05/2002 7:30 p 69.0 69.0 71.0 67.4 0.0 0.0 --- 0.00 30.082
05/05/2002 8:00 p 67.2 67.2 71.1 63.7 0.0 0.0 --- 0.00 30.096
05/05/2002 8:30 p 62.8 62.8 63.7 62.1 0.0 3.0 NNW 0.00 30.111
05/05/2002 9:00 p 61.5 61.5 62.2 60.7 0.0 0.0 --- 0.00 30.120
05/05/2002 9:30 p 60.3 60.3 60.6 59.6 0.0 0.0 --- 0.00 30.132
05/05/2002 10:00 p 59.0 59.0 59.8 58.3 0.0 0.0 --- 0.00 30.140
05/05/2002 10:30 p 57.9 57.9 58.3 57.3 0.0 0.0 --- 0.00 30.145
05/05/2002 11:00 p 56.5 56.5 57.3 55.8 0.0 0.0 --- 0.00 30.148
05/05/2002 11:30 p 55.4 55.4 55.9 54.9 0.0 0.0 --- 0.00 30.151
05/06/2002 12:00 a 54.1 54.1 54.9 53.2 0.0 0.0 --- 0.00 30.149
05/06/2002 12:30 a 53.1 53.1 53.5 52.8 0.0 0.0 --- 0.00 30.154
05/06/2002 1:00 a 52.5 52.5 53.2 51.8 0.0 0.0 --- 0.00 30.155
05/06/2002 1:30 a 51.6 51.6 52.0 51.1 0.0 0.0 --- 0.00 30.152
05/06/2002 2:00 a 51.1 51.1 51.4 50.9 0.0 0.0 --- 0.00 30.154
05/06/2002 2:30 a 50.8 50.8 51.3 50.5 0.0 0.0 --- 0.00 30.148
05/06/2002 3:00 a 50.3 50.3 50.7 49.9 0.0 0.0 --- 0.00 30.147
05/06/2002 3:30 a 49.7 49.7 50.2 49.5 0.0 0.0 --- 0.00 30.152
05/06/2002 4:00 a 49.4 49.4 49.9 48.8 0.0 0.0 --- 0.00 30.154
05/06/2002 4:30 a 48.9 48.9 49.1 48.7 0.0 0.0 --- 0.00 30.160
05/06/2002 5:00 a 48.9 48.9 49.2 48.3 0.0 0.0 --- 0.00 30.171
05/06/2002 5:30 a 48.0 48.0 48.5 47.6 0.0 0.0 --- 0.00 30.169
05/06/2002 6:00 a 47.9 47.9 48.3 47.6 0.0 0.0 --- 0.00 30.168
05/06/2002 6:30 a 48.3 48.3 49.0 47.8 0.0 0.0 --- 0.00 30.153
05/06/2002 7:00 a 49.6 49.6 50.4 48.9 0.0 0.0 --- 0.00 30.161
05/06/2002 7:30 a 52.1 52.1 53.0 50.3 0.0 0.0 --- 0.00 30.173
05/06/2002 8:00 a 54.0 54.0 55.0 52.8 0.0 0.0 --- 0.00 30.171
05/06/2002 8:30 a 56.2 56.2 57.5 54.9 0.0 0.0 --- 0.00 30.173
05/06/2002 9:00 a 58.9 58.9 60.6 57.5 0.0 0.0 --- 0.00 30.176
05/06/2002 9:30 a 62.1 62.1 63.8 60.5 0.0 0.0 --- 0.00 30.167
05/06/2002 10:00 a 65.5 65.5 67.0 63.8 0.0 0.0 --- 0.00 30.160
05/06/2002 10:30 a 68.8 68.8 71.0 66.7 0.0 0.0 --- 0.00 30.161
05/06/2002 11:00 a 72.0 72.0 73.9 70.9 0.0 0.0 --- 0.00 30.153
05/06/2002 11:30 a 74.7 74.7 76.0 73.4 0.0 0.0 --- 0.00 30.140
05/06/2002 12:00 p 76.2 76.2 77.0 75.5 0.0 2.0 SE 0.00 30.134
05/06/2002 12:30 p 77.7 77.7 78.6 76.6 0.0 3.0 NE 0.00 30.119
05/06/2002 1:00 p 78.8 78.8 79.7 78.1 0.0 4.0 N 0.00 30.106
05/06/2002 1:30 p 80.1 80.1 80.8 79.5 0.0 4.0 N 0.00 30.088
05/06/2002 2:00 p 79.5 79.5 80.5 78.2 0.0 5.0 N 0.00 30.074
05/06/2002 2:30 p 79.7 79.7 80.6 78.4 0.0 4.0 N 0.00 30.055
05/06/2002 3:00 p 79.2 79.2 80.4 77.3 0.0 0.0 --- 0.00 30.043
05/06/2002 3:30 p 77.6 77.6 78.7 76.8 0.0 0.0 --- 0.00 30.039
05/06/2002 4:00 p 76.7 76.7 77.2 76.1 0.0 0.0 --- 0.00 30.038
05/06/2002 4:30 p 76.3 76.3 76.5 76.1 0.0 0.0 --- 0.00 30.023
05/06/2002 5:00 p 75.2 75.2 76.2 74.4 0.0 2.0 NE 0.00 30.022
05/06/2002 5:30 p 74.2 74.2 74.7 73.2 0.0 1.0 --- 0.00 30.015
05/06/2002 6:00 p 72.4 72.4 73.1 71.7 0.0 0.0 --- 0.00 30.012
05/06/2002 6:30 p 70.9 70.9 71.8 69.8 0.0 0.0 --- 0.00 30.006
05/06/2002 7:00 p 69.4 69.4 70.0 68.5 0.0 0.0 --- 0.00 29.996
05/06/2002 7:30 p 67.8 67.8 68.5 67.1 0.0 0.0 --- 0.00 30.000
05/06/2002 8:00 p 66.4 66.4 67.1 65.7 0.0 4.0 ENE 0.00 30.007
05/06/2002 8:30 p 65.2 65.2 65.7 64.7 0.0 4.0 SW 0.00 30.002
05/06/2002 9:00 p 64.3 64.3 65.2 63.9 0.0 0.0 --- 0.00 30.008
05/06/2002 9:30 p 64.1 64.1 66.0 62.8 0.0 0.0 --- 0.00 30.009
05/06/2002 10:00 p 62.1 62.1 62.8 61.8 0.0 0.0 --- 0.00 29.992
05/07/2002 4:30 a 56.9 56.9 57.3 56.4 0.0 0.0 --- 0.00 0.713
05/07/2002 5:00 a 56.8 56.8 57.1 56.4 0.0 0.0 --- 0.00 29.881
05/07/2002 5:30 a 57.0 57.0 57.2 56.6 0.0 0.0 --- 0.00 29.871
05/07/2002 6:00 a 57.3 57.3 57.5 57.1 0.0 0.0 --- 0.00 29.869
05/07/2002 6:30 a 57.5 57.5 58.0 57.1 0.0 0.0 --- 0.00 29.868
05/07/2002 7:00 a 58.3 58.3 58.7 57.9 0.0 0.0 --- 0.00 29.877
05/07/2002 7:30 a 59.5 59.5 60.7 58.6 0.0 0.0 --- 0.00 29.878
05/07/2002 8:00 a 61.2 61.2 61.8 60.7 0.0 0.0 --- 0.00 29.872
05/07/2002 8:30 a 62.8 62.8 64.1 61.5 0.0 0.0 --- 0.00 29.852
05/07/2002 9:00 a 64.8 64.8 66.1 63.9 0.0 0.0 --- 0.00 29.835
05/07/2002 9:30 a 67.2 67.2 68.3 66.2 0.0 0.0 --- 0.00 29.841
05/07/2002 10:00 a 69.2 69.2 70.4 68.1 0.0 0.0 --- 0.00 29.838
05/07/2002 10:30 a 71.2 71.2 72.2 69.9 0.0 0.0 --- 0.00 29.837
05/07/2002 11:00 a 73.2 73.2 74.7 72.1 0.0 0.0 --- 0.00 29.826
05/07/2002 11:30 a 75.5 75.5 76.7 74.2 0.0 0.0 --- 0.00 29.816
05/07/2002 12:00 p 77.1 77.1 78.5 76.0 0.0 0.0 --- 0.00 29.811
05/07/2002 12:30 p 78.4 78.4 80.2 77.1 0.0 0.0 --- 0.00 29.808
05/07/2002 1:00 p 79.4 79.4 81.2 77.2 0.0 4.0 NNE 0.00 29.799
05/07/2002 1:30 p 79.7 79.7 82.2 77.6 0.0 0.0 --- 0.00 29.797
05/07/2002 2:00 p 82.2 82.2 83.4 81.0 0.0 3.0 S 0.00 29.784
05/07/2002 2:30 p 81.0 81.0 82.4 79.8 0.0 2.0 S 0.00 29.784
05/07/2002 3:00 p 80.4 80.4 81.1 79.6 0.0 2.0 W 0.00 29.768
05/07/2002 3:30 p 80.8 80.8 83.3 79.6 0.0 0.0 --- 0.00 29.758
05/07/2002 4:00 p 81.0 81.0 83.0 79.8 0.0 4.0 N 0.00 29.744
05/07/2002 4:30 p 80.4 80.4 81.1 79.6 0.0 3.0 WNW 0.00 29.737
05/07/2002 5:00 p 79.8 79.8 80.4 79.2 0.0 2.0 SSE 0.00 29.742
05/07/2002 5:30 p 79.3 79.3 79.8 79.0 0.0 0.0 --- 0.00 29.743
05/07/2002 6:00 p 78.6 78.6 79.1 78.2 0.0 0.0 --- 0.00 29.737
05/07/2002 6:30 p 77.7 77.7 78.5 77.1 0.0 0.0 --- 0.00 29.739
05/07/2002 7:00 p 76.7 76.7 77.4 75.8 0.0 0.0 --- 0.00 29.737
05/07/2002 7:30 p 75.4 75.4 75.9 74.9 0.0 0.0 --- 0.00 29.748
05/07/2002 8:00 p 74.4 74.4 75.1 73.6 0.0 0.0 --- 0.00 29.758
05/07/2002 8:30 p 72.3 72.3 73.6 71.7 0.0 0.0 --- 0.00 29.773
05/07/2002 9:00 p 71.2 71.2 71.8 70.3 0.0 0.0 --- 0.00 29.783
05/07/2002 9:30 p 70.1 70.1 70.4 69.6 0.0 0.0 --- 0.00 29.798
05/07/2002 10:00 p 69.0 69.0 69.9 68.0 0.0 0.0 --- 0.00 29.795
05/07/2002 10:30 p 68.4 68.4 72.0 67.2 0.0 0.0 --- 0.00 29.801
05/07/2002 11:00 p 67.7 67.7 72.2 65.8 0.0 0.0 --- 0.00 29.807
05/07/2002 11:30 p 65.5 65.5 65.9 65.0 0.0 0.0 --- 0.00 29.813
05/08/2002 12:00 a 65.0 65.0 65.4 64.6 0.0 0.0 --- 0.00 29.820
05/08/2002 12:30 a 64.2 64.2 64.6 63.7 0.0 0.0 --- 0.00 29.822
05/08/2002 1:00 a 63.6 63.6 64.3 62.9 0.0 0.0 --- 0.00 29.835
05/08/2002 1:30 a 64.7 64.7 66.4 63.1 0.0 0.0 --- 0.00 29.839
05/08/2002 2:00 a 67.1 67.1 68.0 65.7 0.0 0.0 --- 0.00 29.834
05/08/2002 2:30 a 65.8 65.8 66.6 64.9 0.0 0.0 --- 0.00 29.838
05/08/2002 3:00 a 65.9 65.9 66.5 64.9 0.0 0.0 --- 0.00 29.837
05/08/2002 3:30 a 65.8 65.8 66.2 65.5 0.0 0.0 --- 0.00 29.842
05/08/2002 4:00 a 65.6 65.6 65.9 65.3 0.0 3.0 SSE 0.00 29.847
05/08/2002 4:30 a 64.8 64.8 65.4 64.3 0.0 0.0 --- 0.00 29.866
05/08/2002 5:00 a 63.6 63.6 64.3 63.0 0.0 3.0 SSE 0.00 29.880
05/08/2002 5:30 a 62.5 62.5 63.0 61.9 0.0 6.0 SE 0.00 29.900
05/08/2002 6:00 a 61.5 61.5 61.9 61.0 0.0 4.0 SE 0.00 29.913
05/08/2002 6:30 a 60.7 60.7 61.2 60.3 0.0 3.0 SE 0.00 29.928
05/08/2002 7:00 a 60.5 60.5 60.8 60.2 0.0 0.0 --- 0.00 29.959
05/08/2002 7:30 a 61.3 61.3 61.9 60.7 0.0 0.0 --- 0.00 29.972
05/08/2002 8:00 a 61.9 61.9 62.4 61.6 0.0 5.0 SE 0.00 29.973
05/08/2002 8:30 a 63.1 63.1 64.1 62.4 0.0 3.0 SE 0.00 29.997
05/08/2002 9:00 a 64.5 64.5 65.4 63.8 0.0 2.0 SE 0.00 30.007
05/08/2002 9:30 a 66.0 66.0 67.3 65.4 0.0 0.0 --- 0.00 30.020
05/08/2002 10:00 a 67.7 67.7 69.1 66.8 0.0 5.0 SE 0.00 30.011
05/08/2002 10:30 a 69.5 69.5 70.4 68.5 0.0 7.0 SE 0.00 30.020
05/08/2002 11:00 a 71.1 71.1 72.0 70.4 0.0 0.0 --- 0.00 30.025
05/08/2002 11:30 a 72.5 72.5 73.3 71.5 0.0 0.0 --- 0.00 30.020
05/08/2002 12:00 p 73.9 73.9 74.9 72.5 0.0 3.0 SE 0.00 30.012
05/08/2002 12:30 p 75.5 75.5 76.3 74.7 0.0 0.0 --- 0.00 30.007
05/08/2002 1:00 p 76.0 76.0 76.8 75.0 0.0 0.0 --- 0.00 30.004
05/08/2002 1:30 p 76.3 76.3 77.2 75.8 0.0 4.0 SE 0.00 29.998
05/08/2002 2:00 p 76.8 76.8 77.9 75.3 0.0 3.0 SE 0.00 29.999
05/08/2002 2:30 p 76.7 76.7 77.9 75.2 0.0 6.0 NNE 0.00 30.001
05/08/2002 3:00 p 76.1 76.1 77.9 75.5 0.0 3.0 SW 0.00 29.997
05/08/2002 3:30 p 76.0 76.0 76.7 75.2 0.0 0.0 --- 0.00 29.991
05/08/2002 4:00 p 73.4 73.4 76.3 71.0 0.0 4.0 NNE 0.00 29.995
05/08/2002 4:30 p 69.6 69.6 71.6 68.0 0.0 1.0 ENE 0.00 30.006
05/08/2002 5:00 p 66.4 66.4 68.4 65.0 0.0 1.0 --- 0.00 30.024
05/08/2002 5:30 p 64.0 64.0 65.3 62.8 0.0 2.0 NE 0.00 30.025
05/08/2002 6:00 p 62.0 62.0 63.1 60.9 0.0 2.0 NE 0.00 30.027
05/08/2002 6:30 p 60.3 60.3 61.3 59.7 0.0 0.0 --- 0.00 30.038
05/08/2002 7:00 p 59.4 59.4 60.1 58.8 0.0 0.0 --- 0.00 30.049
05/08/2002 7:30 p 58.4 58.4 58.9 57.8 0.0 0.0 --- 0.00 30.045
05/08/2002 8:00 p 57.6 57.6 58.0 57.3 0.0 0.0 --- 0.00 30.042
05/08/2002 8:30 p 56.9 56.9 57.3 56.5 0.0 0.0 --- 0.00 30.050
05/08/2002 9:00 p 56.4 56.4 56.7 56.1 0.0 0.0 --- 0.00 30.059
05/08/2002 9:30 p 56.3 56.3 56.6 56.1 0.0 0.0 --- 0.00 30.057
05/08/2002 10:00 p 56.0 56.0 56.5 55.7 0.0 0.0 --- 0.00 30.045
05/08/2002 10:30 p 55.8 55.8 56.2 55.5 0.0 0.0 --- 0.00 30.053
05/08/2002 11:00 p 55.6 55.6 55.9 55.4 0.0 0.0 --- 0.00 30.039
05/08/2002 11:30 p 55.4 55.4 55.8 55.1 0.0 0.0 --- 0.00 30.054
05/09/2002 12:00 a 55.2 55.2 55.6 54.9 0.0 0.0 --- 0.00 30.055
05/09/2002 12:30 a 55.4 55.4 55.9 54.8 0.0 0.0 --- 0.00 30.052
05/09/2002 1:00 a 55.2 55.2 55.7 54.9 0.0 0.0 --- 0.00 30.068
05/09/2002 1:30 a 54.8 54.8 55.5 54.4 0.0 0.0 --- 0.00 30.055
05/09/2002 2:00 a 54.3 54.3 54.7 54.1 0.0 0.0 --- 0.00 30.038
05/09/2002 2:30 a 54.1 54.1 54.2 54.0 0.0 0.0 --- 0.00 30.018
05/09/2002 3:00 a 54.1 54.1 54.3 53.9 0.0 0.0 --- 0.00 30.007
05/09/2002 3:30 a 54.1 54.1 54.4 53.3 0.0 1.0 NE 0.00 30.000
05/09/2002 4:00 a 53.0 53.0 53.4 52.6 0.0 0.0 --- 0.00 30.001
05/09/2002 4:30 a 53.0 53.0 53.3 52.6 0.0 0.0 --- 0.00 29.994
05/09/2002 5:00 a 52.5 52.5 52.8 52.1 0.0 3.0 NE 0.00 30.021
05/09/2002 5:30 a 52.2 52.2 52.7 51.7 0.0 0.0 --- 0.00 30.027
05/09/2002 6:00 a 52.2 52.2 53.2 51.7 0.0 0.0 --- 0.00 30.004
05/09/2002 6:30 a 52.0 52.0 52.5 51.6 0.0 0.0 --- 0.00 30.012
05/09/2002 7:00 a 52.3 52.3 52.6 52.0 0.0 0.0 --- 0.00 30.030
05/09/2002 7:30 a 52.2 52.2 52.5 51.5 0.0 0.0 --- 0.00 30.030
05/09/2002 8:00 a 51.6 51.6 52.1 51.2 0.0 1.0 --- 0.00 30.048
05/09/2002 8:30 a 51.3 51.3 52.2 50.8 0.0 0.0 --- 0.00 30.025
05/09/2002 9:00 a 51.1 51.1 51.6 50.7 0.0 1.0 --- 0.00 30.039
05/09/2002 9:30 a 50.9 50.9 51.8 50.4 0.0 1.0 --- 0.00 30.023
05/09/2002 10:00 a 50.9 50.9 51.2 50.6 0.0 1.0 --- 0.00 30.008
05/09/2002 10:30 a 51.3 51.3 51.8 50.7 0.0 0.0 --- 0.00 30.004
05/09/2002 11:00 a 52.1 52.1 52.8 51.6 0.0 0.0 --- 0.00 29.991
05/09/2002 11:30 a 51.6 51.6 52.2 51.2 0.0 0.0 --- 0.00 29.984
05/09/2002 12:00 p 51.6 51.6 52.0 51.3 0.0 0.0 --- 0.00 29.978
05/09/2002 12:30 p 52.0 52.0 52.3 51.7 0.0 0.0 --- 0.00 29.963
05/09/2002 1:00 p 52.4 52.4 52.9 51.9 0.0 0.0 --- 0.25 29.952
05/09/2002 1:30 p 53.0 53.0 53.5 52.4 0.0 0.0 --- 0.00 29.946
05/09/2002 2:00 p 53.3 53.3 53.8 53.0 0.0 0.0 --- 0.00 29.938
05/09/2002 2:30 p 53.5 53.5 53.8 53.3 0.0 0.0 --- 0.00 29.925
05/09/2002 3:00 p 53.7 53.7 54.4 53.2 0.0 0.0 --- 0.00 29.905
05/09/2002 3:30 p 54.3 54.3 54.8 53.6 0.0 0.0 --- 0.00 29.887
05/09/2002 4:00 p 53.8 53.8 54.4 53.6 0.0 2.0 E 0.00 29.879
05/09/2002 4:30 p 54.3 54.3 54.6 53.9 0.0 0.0 --- 0.00 29.869
05/09/2002 5:00 p 54.2 54.2 54.6 53.6 0.0 0.0 --- 0.00 29.887
05/09/2002 5:30 p 53.9 53.9 54.2 53.7 0.0 0.0 --- 0.00 29.875
05/09/2002 6:00 p 53.6 53.6 53.9 53.2 0.0 0.0 --- 0.00 29.867
05/09/2002 6:30 p 53.4 53.4 53.9 53.0 0.0 0.0 --- 0.00 29.835
05/09/2002 7:00 p 53.2 53.2 53.5 52.9 0.0 0.0 --- 0.00 29.790
05/09/2002 7:30 p 53.2 53.2 53.4 53.0 0.0 0.0 --- 0.00 29.819
05/09/2002 8:00 p 53.3 53.3 53.5 53.1 0.0 0.0 --- 0.00 29.818
05/09/2002 8:30 p 53.3 53.3 53.5 53.1 0.0 0.0 --- 0.00 29.824
05/09/2002 9:00 p 53.4 53.4 53.5 53.2 0.0 0.0 --- 0.00 29.823
05/09/2002 9:30 p 53.6 53.6 53.9 53.3 0.0 0.0 --- 0.00 29.821
05/09/2002 10:00 p 53.9 53.9 54.2 53.6 0.0 0.0 --- 0.00 29.813
05/09/2002 10:30 p 54.3 54.3 54.7 53.9 0.0 0.0 --- 0.00 29.833
05/09/2002 11:00 p 54.4 54.4 54.7 54.2 0.0 0.0 --- 0.00 29.828
05/09/2002 11:30 p 54.4 54.4 54.5 54.3 0.0 0.0 --- 0.00 29.821
05/10/2002 12:00 a 54.6 54.6 54.9 54.4 0.0 0.0 --- 0.00 29.812
05/10/2002 12:30 a 54.8 54.8 55.1 54.6 0.0 0.0 --- 0.00 29.812
05/10/2002 1:00 a 55.0 55.0 55.3 54.9 0.0 0.0 --- 0.00 29.800
05/10/2002 1:30 a 55.0 55.0 55.2 54.7 0.0 0.0 --- 0.00 29.814
05/10/2002 2:00 a 54.9 54.9 55.1 54.7 0.0 0.0 --- 0.00 29.806
05/10/2002 2:30 a 54.9 54.9 55.1 54.7 0.0 0.0 --- 0.00 29.808
05/10/2002 3:00 a 54.9 54.9 55.1 54.7 0.0 0.0 --- 0.00 29.818
05/10/2002 3:30 a 55.0 55.0 55.2 54.8 0.0 0.0 --- 0.00 29.815
05/10/2002 4:00 a 55.1 55.1 55.3 54.9 0.0 0.0 --- 0.00 29.817
05/10/2002 4:30 a 55.2 55.2 55.5 55.0 0.0 0.0 --- 0.00 29.824
05/10/2002 5:00 a 55.3 55.3 55.4 55.2 0.0 0.0 --- 0.00 29.835
05/10/2002 5:30 a 55.1 55.1 55.5 54.8 0.0 0.0 --- 0.00 29.837
05/10/2002 6:00 a 55.0 55.0 55.3 54.6 0.0 0.0 --- 0.00 29.843
05/10/2002 6:30 a 55.0 55.0 55.2 54.8 0.0 0.0 --- 0.00 29.873
05/10/2002 7:00 a 55.5 55.5 56.2 55.0 0.0 0.0 --- 0.00 29.894
05/10/2002 7:30 a 57.4 57.4 58.7 56.2 0.0 0.0 --- 0.00 29.912
05/10/2002 8:00 a 59.3 59.3 60.0 58.6 0.0 0.0 --- 0.00 29.921
05/10/2002 1:30 p 76.5 76.5 77.8 75.7 0.0 5.0 SSE 0.00 29.919
05/10/2002 2:00 p 77.3 77.3 78.3 75.9 0.0 8.0 ESE 0.00 29.922
05/10/2002 2:30 p 77.2 77.2 78.1 75.9 1.0 7.0 SSE 0.00 29.911
05/10/2002 3:00 p 77.1 77.1 78.0 76.2 1.0 8.0 NE 0.00 29.911
05/10/2002 3:30 p 77.0 77.0 78.0 75.4 1.0 6.0 SE 0.00 29.917
05/10/2002 4:00 p 77.0 77.0 77.9 76.4 0.0 6.0 ENE 0.00 29.916
05/10/2002 4:30 p 75.7 75.7 76.6 75.3 0.0 7.0 ESE 0.00 29.909
05/10/2002 5:00 p 74.9 74.9 75.8 74.0 0.0 9.0 NNE 0.00 29.906
05/10/2002 5:30 p 74.2 74.2 74.5 73.9 0.0 5.0 ESE 0.00 29.908
05/10/2002 6:00 p 73.3 73.3 74.0 72.9 0.0 6.0 SSE 0.00 29.919
05/10/2002 6:30 p 72.5 72.5 73.0 72.1 1.0 7.0 ENE 0.00 29.923
05/10/2002 7:00 p 71.5 71.5 72.1 71.1 0.0 3.0 ENE 0.00 29.938
05/10/2002 7:30 p 70.5 70.5 71.0 69.9 0.0 6.0 N 0.00 29.942
05/10/2002 8:00 p 69.2 69.2 70.2 68.5 0.0 3.0 SE 0.00 29.962
05/10/2002 8:30 p 67.9 67.9 68.6 67.3 0.0 4.0 SSE 0.00 29.981
05/10/2002 9:00 p 66.6 66.6 67.7 65.7 0.0 0.0 --- 0.00 30.002
05/10/2002 9:30 p 65.7 65.7 66.1 64.9 0.0 4.0 NNE 0.00 30.015
05/10/2002 10:00 p 64.4 64.4 65.6 63.4 0.0 0.0 --- 0.00 30.028
05/10/2002 10:30 p 63.0 63.0 63.5 62.4 0.0 0.0 --- 0.00 30.049
05/10/2002 11:00 p 62.2 62.2 62.4 61.9 0.0 0.0 --- 0.00 30.071
05/10/2002 11:30 p 61.5 61.5 62.0 61.1 0.0 5.0 SSE 0.00 30.105
05/11/2002 12:00 a 61.0 61.0 61.6 60.3 0.0 6.0 SSE 0.00 30.126
05/11/2002 12:30 a 59.7 59.7 60.6 59.2 0.0 2.0 SSE 0.00 30.142
05/11/2002 1:00 a 59.0 59.0 59.5 58.4 0.0 3.0 SSE 0.00 30.155
05/11/2002 1:30 a 57.5 57.5 58.4 56.1 0.0 0.0 --- 0.00 30.170
05/11/2002 2:00 a 55.2 55.2 56.2 54.5 0.0 0.0 --- 0.00 30.177
05/11/2002 2:30 a 53.4 53.4 54.5 52.4 0.0 0.0 --- 0.00 30.182
05/11/2002 3:00 a 51.6 51.6 52.4 51.0 0.0 0.0 --- 0.00 30.192
05/11/2002 3:30 a 51.3 51.3 53.1 50.4 0.0 0.0 --- 0.00 30.207
05/11/2002 4:00 a 53.1 53.1 53.8 52.5 0.0 0.0 --- 0.00 30.220
05/11/2002 4:30 a 51.9 51.9 52.5 51.2 0.0 0.0 --- 0.00 30.232
05/11/2002 5:00 a 51.4 51.4 51.9 51.0 0.0 0.0 --- 0.00 30.242
05/11/2002 5:30 a 50.4 50.4 50.9 50.0 0.0 0.0 --- 0.00 30.258
05/11/2002 6:00 a 50.2 50.2 51.7 49.6 0.0 5.0 SSE 0.00 30.277
05/11/2002 6:30 a 52.3 52.3 52.6 51.7 0.0 4.0 SSE 0.00 30.294
05/11/2002 7:00 a 52.6 52.6 53.0 52.2 0.0 0.0 --- 0.00 30.299
05/11/2002 7:30 a 53.5 53.5 54.5 52.7 0.0 0.0 --- 0.00 30.314
05/11/2002 8:00 a 53.9 53.9 54.3 53.5 0.0 4.0 SSE 0.00 30.318
05/11/2002 8:30 a 54.6 54.6 55.2 54.0 0.0 4.0 SSE 0.00 30.312
05/11/2002 9:00 a 56.2 56.2 56.8 55.2 0.0 5.0 SSE 0.00 30.305
05/11/2002 9:30 a 57.1 57.1 58.3 56.4 0.0 6.0 SSE 0.00 30.299
05/11/2002 10:00 a 58.7 58.7 59.9 57.9 0.0 3.0 SSE 0.00 30.295
05/11/2002 10:30 a 60.7 60.7 61.8 59.5 0.0 2.0 SSE 0.00 30.280
05/11/2002 11:00 a 62.4 62.4 63.9 60.8 0.0 8.0 SSE 0.00 30.280
05/11/2002 11:30 a 65.0 65.0 66.4 63.3 0.0 4.0 SSE 0.00 30.287
05/11/2002 12:00 p 67.2 67.2 69.1 66.0 0.0 0.0 --- 0.00 30.274
05/11/2002 12:30 p 68.3 68.3 70.1 66.8 0.0 4.0 SSE 0.00 30.269
05/11/2002 1:00 p 70.0 70.0 72.0 69.1 0.0 4.0 SSE 0.00 30.263
05/11/2002 1:30 p 70.7 70.7 72.0 69.3 0.0 5.0 SE 0.00 30.259
05/11/2002 2:00 p 72.2 72.2 73.8 70.4 0.0 0.0 --- 0.00 30.251
05/11/2002 2:30 p 73.0 73.0 73.9 71.1 0.0 2.0 E 0.00 30.251
05/11/2002 3:00 p 73.6 73.6 75.2 72.3 0.0 5.0 SE 0.00 30.237
05/11/2002 3:30 p 73.6 73.6 74.6 72.6 0.0 4.0 S 0.00 30.224
05/11/2002 4:00 p 73.6 73.6 74.3 72.7 0.0 0.0 --- 0.00 30.224
05/11/2002 4:30 p 73.2 73.2 74.0 72.2 0.0 4.0 NE 0.00 30.213
05/11/2002 5:00 p 72.1 72.1 73.2 71.2 0.0 0.0 --- 0.00 30.211
05/11/2002 5:30 p 70.6 70.6 71.6 69.6 0.0 0.0 --- 0.00 30.198
05/11/2002 6:00 p 69.3 69.3 69.7 68.8 0.0 0.0 --- 0.00 30.206
05/11/2002 6:30 p 68.5 68.5 69.0 68.1 0.0 0.0 --- 0.00 30.213
05/11/2002 7:00 p 69.6 69.6 71.4 68.3 0.0 0.0 --- 0.00 30.209
05/11/2002 7:30 p 66.6 66.6 70.5 64.4 0.0 0.0 --- 0.00 30.199
05/11/2002 8:00 p 67.5 67.5 69.8 65.8 0.0 0.0 --- 0.00 30.212
05/11/2002 8:30 p 63.6 63.6 68.3 60.3 0.0 0.0 --- 0.00 30.226
05/11/2002 9:00 p 59.6 59.6 60.6 58.8 0.0 0.0 --- 0.00 30.225
05/11/2002 9:30 p 58.5 58.5 59.2 57.4 0.0 0.0 --- 0.00 30.234
05/11/2002 10:00 p 60.6 60.6 64.2 57.7 0.0 0.0 --- 0.00 30.224
05/11/2002 10:30 p 56.1 56.1 57.4 55.7 0.0 0.0 --- 0.00 30.219
05/11/2002 11:00 p 55.9 55.9 56.5 55.7 0.0 0.0 --- 0.00 30.215
05/11/2002 11:30 p 56.3 56.3 56.6 56.0 0.0 0.0 --- 0.00 30.213
05/12/2002 12:00 a 56.6 56.6 56.8 56.1 0.0 0.0 --- 0.00 30.209
05/12/2002 12:30 a 56.1 56.1 56.7 55.6 0.0 0.0 --- 0.00 30.197
05/12/2002 1:00 a 56.1 56.1 56.7 55.7 0.0 0.0 --- 0.00 30.196
05/12/2002 1:30 a 56.4 56.4 56.7 56.1 0.0 0.0 --- 0.00 30.185
05/12/2002 2:00 a 56.6 56.6 57.0 56.2 0.0 0.0 --- 0.00 30.192
05/12/2002 2:30 a 56.3 56.3 56.6 56.0 0.0 0.0 --- 0.00 30.186
05/12/2002 3:00 a 56.1 56.1 56.6 55.8 0.0 0.0 --- 0.00 30.171
05/12/2002 3:30 a 56.3 56.3 56.6 56.1 0.0 0.0 --- 0.00 30.169
05/12/2002 4:00 a 56.5 56.5 56.8 56.2 0.0 0.0 --- 0.00 30.158
05/12/2002 4:30 a 56.7 56.7 57.0 56.4 0.0 0.0 --- 0.00 30.169
05/12/2002 5:00 a 56.6 56.6 56.9 56.2 0.0 0.0 --- 0.00 30.174
05/12/2002 5:30 a 56.2 56.2 56.5 55.6 0.0 0.0 --- 0.00 30.164
05/12/2002 6:00 a 56.4 56.4 56.5 56.3 0.0 0.0 --- 0.00 30.170
05/12/2002 6:30 a 56.2 56.2 56.5 55.6 0.0 0.0 --- 0.00 30.180
05/12/2002 7:00 a 55.3 55.3 55.7 54.7 0.0 0.0 --- 0.00 30.173
05/12/2002 7:30 a 55.4 55.4 55.8 54.9 0.0 0.0 --- 0.00 30.176
05/12/2002 8:00 a 55.5 55.5 55.8 55.1 0.0 0.0 --- 0.00 30.163
05/12/2002 8:30 a 55.2 55.2 55.6 54.8 0.0 0.0 --- 0.00 30.155
05/12/2002 9:00 a 54.8 54.8 55.3 54.2 0.0 0.0 --- 0.00 30.143
05/12/2002 9:30 a 55.2 55.2 55.7 54.5 0.0 0.0 --- 0.00 30.130
05/12/2002 10:00 a 55.5 55.5 56.1 55.0 0.0 1.0 --- 0.00 30.103
05/12/2002 10:30 a 55.8 55.8 56.2 55.4 0.0 0.0 --- 0.00 30.089
05/12/2002 11:00 a 56.5 56.5 57.0 56.0 0.0 0.0 --- 0.00 30.071
05/12/2002 11:30 a 57.1 57.1 60.1 56.6 0.0 0.0 --- 0.00 30.057
05/12/2002 12:00 p 58.3 58.3 61.3 57.5 0.0 0.0 --- 0.00 30.039
05/12/2002 12:30 p 57.1 57.1 58.9 56.2 0.0 0.0 --- 0.00 30.025
05/12/2002 1:00 p 58.1 58.1 60.1 57.1 0.0 0.0 --- 0.00 30.008
05/12/2002 1:30 p 58.3 58.3 60.5 57.6 0.0 1.0 --- 0.00 29.985
05/12/2002 2:00 p 57.9 57.9 58.8 57.2 0.0 0.0 --- 0.00 29.949
05/12/2002 2:30 p 59.0 59.0 62.1 58.1 0.0 0.0 --- 0.00 29.922
05/12/2002 3:00 p 59.0 59.0 61.3 58.3 0.0 0.0 --- 0.09 29.914
05/12/2002 3:30 p 58.8 58.8 59.4 58.5 0.0 0.0 --- 0.00 29.892
05/12/2002 4:00 p 59.3 59.3 61.6 58.3 0.0 0.0 --- 0.00 29.880
05/12/2002 4:30 p 60.5 60.5 63.5 58.7 0.0 0.0 --- 0.00 29.859
05/12/2002 5:00 p 59.7 59.7 63.3 58.1 0.0 0.0 --- 0.00 29.871
05/12/2002 5:30 p 59.7 59.7 62.6 57.5 0.0 2.0 ENE 0.00 29.846
05/12/2002 6:00 p 58.2 58.2 61.8 56.3 0.0 0.0 --- 0.00 29.859
05/12/2002 6:30 p 56.0 56.0 56.5 55.5 0.0 0.0 --- 0.00 29.883
05/12/2002 7:00 p 56.1 56.1 60.9 54.4 0.0 4.0 SSE 0.00 29.855
05/12/2002 7:30 p 56.1 56.1 60.3 55.0 0.0 0.0 --- 0.00 29.823
05/12/2002 8:00 p 55.0 55.0 56.8 54.7 0.0 0.0 --- 0.00 29.810
05/12/2002 8:30 p 55.6 55.6 57.4 55.0 0.0 0.0 --- 0.00 29.816
05/12/2002 9:00 p 55.4 55.4 55.7 55.1 0.0 0.0 --- 0.00 29.841
05/12/2002 9:30 p 55.6 55.6 55.8 55.3 0.0 0.0 --- 0.00 29.839
05/12/2002 10:00 p 55.7 55.7 56.2 55.3 0.0 0.0 --- 0.00 29.817
05/12/2002 10:30 p 56.6 56.6 59.7 55.4 0.0 0.0 --- 0.00 29.811
05/12/2002 11:00 p 58.0 58.0 61.5 56.0 0.0 0.0 --- 0.00 29.818
05/12/2002 11:30 p 56.0 56.0 56.9 55.6 0.0 0.0 --- 0.00 29.815
05/13/2002 12:00 a 55.9 55.9 56.1 55.7 0.0 0.0 --- 0.00 29.816
05/13/2002 12:30 a 55.8 55.8 56.0 55.5 0.0 0.0 --- 0.00 29.814
05/13/2002 1:00 a 55.7 55.7 56.1 55.5 0.0 0.0 --- 0.00 29.785
05/13/2002 1:30 a 55.7 55.7 56.1 55.5 0.0 0.0 --- 0.00 29.767
05/13/2002 2:00 a 55.7 55.7 55.9 55.6 0.0 0.0 --- 0.00 29.746
05/13/2002 2:30 a 55.8 55.8 56.1 55.6 0.0 0.0 --- 0.00 29.726
05/13/2002 3:00 a 56.0 56.0 56.2 55.7 0.0 0.0 --- 0.00 29.743
05/13/2002 3:30 a 55.8 55.8 56.3 55.4 0.0 1.0 SSE 0.00 29.756
05/13/2002 4:00 a 55.2 55.2 55.4 54.9 0.0 1.0 --- 0.00 29.739
05/13/2002 4:30 a 55.1 55.1 55.2 54.9 0.0 0.0 --- 0.00 29.749
05/13/2002 5:00 a 55.0 55.0 55.2 54.8 0.0 0.0 --- 0.00 29.730
05/13/2002 5:30 a 54.7 54.7 54.9 54.6 0.0 0.0 --- 0.00 29.736
05/13/2002 6:00 a 54.7 54.7 54.9 54.3 0.0 3.0 SSE 0.00 29.733
05/13/2002 6:30 a 54.3 54.3 54.6 53.8 0.0 0.0 --- 0.00 29.731
05/13/2002 7:00 a 54.0 54.0 54.2 53.8 0.0 2.0 --- 0.00 29.739
05/13/2002 7:30 a 53.6 53.6 53.9 53.3 0.0 1.0 SSE 0.00 29.719
05/13/2002 8:00 a 53.7 53.7 54.0 53.5 0.0 3.0 SSE 0.00 29.723
05/13/2002 8:30 a 53.8 53.8 54.3 53.5 0.0 0.0 --- 0.00 29.703
05/13/2002 9:00 a 54.0 54.0 54.2 53.7 0.0 2.0 --- 0.00 29.695
05/13/2002 9:30 a 54.2 54.2 54.6 53.7 0.0 0.0 --- 0.00 29.711
05/13/2002 10:00 a 54.2 54.2 54.4 53.8 0.0 0.0 --- 0.00 29.688
05/13/2002 10:30 a 54.4 54.4 54.7 54.2 0.0 0.0 --- 0.00 29.664
05/13/2002 11:00 a 54.4 54.4 54.6 54.2 0.0 0.0 --- 0.00 29.653
05/13/2002 11:30 a 54.5 54.5 54.8 54.2 0.0 2.0 SSE 0.00 29.642
05/13/2002 12:00 p 54.8 54.8 55.1 54.6 0.0 0.0 --- 0.00 29.625
05/13/2002 12:30 p 55.0 55.0 55.5 54.7 0.0 3.0 SSE 0.00 29.603
05/13/2002 1:00 p 55.2 55.2 55.4 55.0 0.0 0.0 --- 0.00 29.591
05/13/2002 1:30 p 55.1 55.1 55.4 54.7 0.0 1.0 SSE 0.00 29.570
05/13/2002 2:00 p 54.8 54.8 55.2 54.5 0.0 0.0 --- 0.00 29.554
05/13/2002 2:30 p 54.8 54.8 55.2 54.5 0.0 5.0 SSE 0.00 29.514
05/13/2002 3:00 p 55.2 55.2 55.5 54.7 0.0 5.0 SSE 0.00 29.496
05/13/2002 3:30 p 54.8 54.8 55.5 54.5 0.0 1.0 --- 0.00 29.476
05/13/2002 4:00 p 54.7 54.7 55.1 54.5 0.0 0.0 --- 0.00 29.444
05/13/2002 4:30 p 54.4 54.4 54.8 53.7 0.0 6.0 SE 0.75 29.451
05/13/2002 5:00 p 53.6 53.6 53.9 53.3 0.0 4.0 S 0.00 29.418
05/13/2002 5:30 p 53.7 53.7 54.0 53.2 0.0 0.0 --- 0.00 29.405
05/13/2002 6:00 p 52.8 52.8 53.3 52.2 0.0 4.0 S 0.00 29.411
05/13/2002 6:30 p 52.5 52.5 52.9 52.1 0.0 2.0 --- 0.00 29.400
05/13/2002 7:00 p 52.7 52.7 53.0 52.4 0.0 2.0 S 0.00 29.392
05/13/2002 7:30 p 52.6 52.6 52.9 52.4 0.0 0.0 --- 0.00 29.366
05/13/2002 8:00 p 52.4 52.4 52.6 52.1 0.0 0.0 --- 0.00 29.357
05/13/2002 8:30 p 52.0 52.0 52.2 51.7 0.0 0.0 --- 0.00 29.337
05/13/2002 9:00 p 51.9 51.9 52.1 51.7 0.0 0.0 --- 0.00 29.346
05/13/2002 9:30 p 52.1 52.1 52.3 51.9 0.0 0.0 --- 0.00 29.329
05/13/2002 10:00 p 51.9 51.9 52.4 51.5 0.0 0.0 --- 0.00 29.298
05/13/2002 10:30 p 52.1 52.1 52.6 51.8 0.0 0.0 --- 0.00 29.303
05/13/2002 11:00 p 52.3 52.3 52.8 51.9 0.0 4.0 S 0.00 29.291
05/13/2002 11:30 p 52.1 52.1 52.4 51.7 0.0 0.0 --- 0.00 29.264
05/14/2002 12:00 a 52.3 52.3 52.6 51.9 0.0 0.0 --- 0.00 29.271
05/14/2002 12:30 a 52.2 52.2 52.6 52.1 0.0 0.0 --- 0.00 29.295
05/14/2002 1:00 a 52.0 52.0 52.6 51.5 0.0 2.0 S 0.00 29.342
05/14/2002 1:30 a 51.9 51.9 52.2 51.6 0.0 0.0 --- 0.00 29.350
05/14/2002 2:00 a 52.2 52.2 52.4 51.7 0.0 0.0 --- 0.00 29.355
05/14/2002 2:30 a 52.3 52.3 52.6 52.0 0.0 0.0 --- 0.00 29.366
05/14/2002 3:00 a 52.3 52.3 52.4 52.1 0.0 0.0 --- 0.00 29.376
05/14/2002 3:30 a 52.0 52.0 52.3 51.8 0.0 6.0 NW 0.00 29.377
05/14/2002 4:00 a 51.9 51.9 52.1 51.7 0.0 0.0 --- 0.00 29.374
05/14/2002 4:30 a 51.7 51.7 52.1 51.2 0.0 4.0 ESE 0.00 29.373
05/14/2002 5:00 a 51.1 51.1 51.4 50.9 0.0 5.0 N 0.00 29.380
05/14/2002 5:30 a 50.9 50.9 51.1 50.6 0.0 0.0 --- 0.00 29.380
05/14/2002 6:00 a 50.6 50.6 51.0 50.3 0.0 0.0 --- 0.00 29.386
05/14/2002 6:30 a 50.6 50.6 51.4 49.9 0.0 1.0 --- 0.00 29.394
05/14/2002 7:00 a 51.5 51.5 51.9 51.3 0.0 0.0 --- 0.00 29.407
05/14/2002 7:30 a 51.6 51.6 51.9 51.0 0.0 7.0 SE 0.00 29.423
05/14/2002 8:00 a 52.5 52.5 54.3 51.9 0.0 4.0 E 0.00 29.429
05/14/2002 8:30 a 53.3 53.3 53.9 52.8 0.0 6.0 SSE 0.00 29.438
05/14/2002 9:00 a 54.0 54.0 55.3 53.4 0.0 6.0 SSE 0.00 29.446
05/14/2002 9:30 a 55.5 55.5 56.8 54.6 0.0 6.0 ESE 0.00 29.441
05/14/2002 10:00 a 57.6 57.6 58.7 56.5 0.0 7.0 SSE 0.00 29.440
05/14/2002 10:30 a 58.3 58.3 59.8 57.3 1.0 8.0 SSE 0.00 29.445
05/14/2002 11:00 a 59.0 59.0 62.9 57.1 0.0 8.0 SSE 0.00 29.441
05/14/2002 11:30 a 60.5 60.5 62.4 59.0 0.0 7.0 SSE 0.00 29.440
05/14/2002 12:00 p 59.2 59.2 63.0 57.1 0.0 4.0 S 0.00 29.433
05/14/2002 12:30 p 63.3 63.3 66.5 60.5 0.0 4.0 SE 0.00 29.425
05/14/2002 1:00 p 63.2 63.2 65.7 60.3 0.0 7.0 NE 0.00 29.408
05/14/2002 1:30 p 63.2 63.2 64.8 61.6 0.0 5.0 NE 0.00 29.395
05/14/2002 2:00 p 64.6 64.6 66.8 62.6 0.0 5.0 SSE 0.00 29.381
05/14/2002 2:30 p 64.3 64.3 66.8 61.8 0.0 6.0 ESE 0.00 29.383
05/14/2002 3:00 p 61.4 61.4 63.2 59.7 1.0 9.0 SSE 0.00 29.397
05/14/2002 3:30 p 63.8 63.8 65.2 61.8 1.0 8.0 SE 0.00 29.389
05/14/2002 4:00 p 64.1 64.1 66.5 62.1 1.0 10.0 ESE 0.00 29.377
05/14/2002 4:30 p 62.4 62.4 63.2 61.5 1.0 8.0 E 0.00 29.392
05/14/2002 5:00 p 61.8 61.8 62.4 61.2 0.0 9.0 E 0.00 29.393
05/14/2002 5:30 p 59.4 59.4 61.5 58.1 0.0 5.0 SSE 0.00 29.410
05/14/2002 6:00 p 58.6 58.6 59.4 57.3 1.0 8.0 E 0.00 29.437
05/14/2002 6:30 p 54.4 54.4 57.2 53.6 0.0 6.0 SSE 0.00 29.443
05/14/2002 7:00 p 53.5 53.5 54.5 52.7 0.0 7.0 SSE 0.00 29.453
05/14/2002 7:30 p 52.5 52.5 52.8 52.1 0.0 4.0 NNE 0.00 29.471
05/14/2002 8:00 p 51.9 51.9 52.4 51.6 0.0 1.0 --- 0.00 29.483
05/14/2002 8:30 p 51.4 51.4 51.7 50.9 0.0 1.0 SSE 0.00 29.501
05/14/2002 9:00 p 51.3 51.3 51.6 51.0 0.0 0.0 --- 0.00 29.518
05/14/2002 9:30 p 51.1 51.1 51.4 50.8 0.0 8.0 E 0.00 29.538
05/14/2002 10:00 p 50.2 50.2 50.9 49.7 0.0 5.0 N 0.00 29.555
05/14/2002 10:30 p 49.9 49.9 50.3 49.6 0.0 4.0 SSE 0.00 29.578
05/14/2002 11:00 p 49.4 49.4 50.3 48.7 0.0 10.0 SSE 0.00 29.581
05/14/2002 11:30 p 48.2 48.2 48.9 47.8 0.0 1.0 --- 0.00 29.597
05/15/2002 12:00 a 47.6 47.6 48.1 47.3 0.0 1.0 SSE 0.23 29.605
05/15/2002 12:30 a 47.6 47.6 47.9 47.3 0.0 1.0 --- 0.00 29.610
05/15/2002 1:00 a 47.6 47.6 47.8 47.2 0.0 4.0 NNW 0.00 29.618
05/15/2002 1:30 a 47.7 47.7 47.9 47.3 0.0 4.0 N 0.00 29.624
05/15/2002 2:00 a 47.8 47.8 48.2 47.6 0.0 3.0 ESE 0.00 29.630
05/15/2002 2:30 a 47.9 47.9 48.2 47.6 0.0 4.0 N 0.00 29.637
05/15/2002 3:00 a 47.8 47.8 48.1 47.6 0.0 2.0 --- 0.00 29.654
05/15/2002 3:30 a 47.7 47.7 48.1 47.5 0.0 4.0 N 0.00 29.672
05/15/2002 4:00 a 48.0 48.0 48.3 47.7 0.0 7.0 N 0.00 29.688
05/15/2002 4:30 a 47.9 47.9 48.2 47.4 0.0 2.0 --- 0.00 29.690
05/15/2002 5:00 a 46.7 46.7 47.5 46.0 0.0 0.0 --- 0.00 29.700
05/15/2002 5:30 a 45.9 45.9 46.3 45.7 0.0 0.0 --- 0.00 29.717
05/15/2002 6:00 a 45.5 45.5 45.8 45.0 0.0 0.0 --- 0.00 29.726
05/15/2002 6:30 a 45.9 45.9 46.8 45.0 0.0 0.0 --- 0.00 29.746
05/15/2002 7:00 a 47.8 47.8 49.4 46.8 0.0 1.0 N 0.00 29.757
05/15/2002 7:30 a 50.4 50.4 51.6 49.3 0.0 3.0 N 0.00 29.770
05/15/2002 8:00 a 51.9 51.9 52.4 51.5 0.0 6.0 SE 0.00 29.775
05/15/2002 8:30 a 52.9 52.9 54.1 52.2 0.0 8.0 ENE 0.00 29.787
05/15/2002 9:00 a 54.3 54.3 55.0 53.8 1.0 8.0 SSE 0.00 29.803
05/15/2002 9:30 a 56.1 56.1 56.8 54.8 0.0 5.0 SSE 0.00 29.802
05/15/2002 10:00 a 58.1 58.1 59.4 56.7 0.0 7.0 SE 0.00 29.807
05/15/2002 10:30 a 60.2 60.2 62.2 58.4 1.0 9.0 ESE 0.00 29.813
05/15/2002 11:00 a 62.6 62.6 64.0 60.9 0.0 6.0 SE 0.00 29.819
05/15/2002 11:30 a 63.9 63.9 65.1 62.9 1.0 9.0 SSE 0.00 29.819
05/15/2002 12:00 p 65.8 65.8 67.4 64.3 1.0 9.0 SSE 0.00 29.821
05/15/2002 12:30 p 66.9 66.9 68.5 65.5 1.0 8.0 SSE 0.00 29.824
05/15/2002 1:00 p 68.2 68.2 70.2 66.8 1.0 8.0 SSE 0.00 29.814
05/15/2002 1:30 p 67.9 67.9 71.0 64.7 0.0 5.0 SE 0.00 29.819
05/15/2002 2:00 p 67.6 67.6 70.7 66.0 1.0 8.0 SE 0.00 29.823
05/15/2002 2:30 p 69.0 69.0 70.7 66.7 1.0 8.0 SE 0.00 29.830
05/15/2002 3:00 p 71.1 71.1 72.7 69.0 0.0 8.0 ESE 0.00 29.830
05/15/2002 3:30 p 69.9 69.9 72.1 67.2 1.0 8.0 SE 0.00 29.839
05/15/2002 4:00 p 69.9 69.9 71.6 67.9 1.0 8.0 SSE 0.00 29.842
05/15/2002 4:30 p 69.5 69.5 70.5 67.9 1.0 7.0 SE 0.00 29.840
05/15/2002 5:00 p 68.8 68.8 69.8 68.0 0.0 5.0 SE 0.00 29.845
05/15/2002 5:30 p 68.3 68.3 68.8 67.6 0.0 7.0 SE 0.00 29.855
05/15/2002 6:00 p 67.6 67.6 68.0 67.4 0.0 6.0 SSE 0.00 29.851
05/15/2002 6:30 p 67.2 67.2 67.7 66.7 0.0 6.0 SSE 0.00 29.859
05/15/2002 7:00 p 66.3 66.3 66.8 65.7 0.0 6.0 N 0.00 29.862
05/15/2002 7:30 p 65.3 65.3 65.8 64.8 0.0 4.0 NNE 0.00 29.867
05/15/2002 8:00 p 64.5 64.5 65.8 62.7 0.0 0.0 --- 0.00 29.875
05/15/2002 8:30 p 61.8 61.8 62.8 60.4 0.0 0.0 --- 0.00 29.885
05/15/2002 9:00 p 58.8 58.8 60.4 57.9 0.0 0.0 --- 0.00 29.902
05/15/2002 9:30 p 57.3 57.3 57.9 56.6 0.0 0.0 --- 0.00 29.916
05/15/2002 10:00 p 56.1 56.1 57.0 55.1 0.0 0.0 --- 0.00 29.922
05/15/2002 10:30 p 54.6 54.6 55.2 54.1 0.0 0.0 --- 0.00 29.924
05/15/2002 11:00 p 53.6 53.6 54.2 53.3 0.0 0.0 --- 0.00 29.929
05/15/2002 11:30 p 53.5 53.5 53.7 53.2 0.0 0.0 --- 0.00 29.935
05/16/2002 12:00 a 53.0 53.0 53.4 52.6 0.0 0.0 --- 0.00 29.937
05/16/2002 12:30 a 52.3 52.3 52.9 52.0 0.0 0.0 --- 0.00 29.944
05/16/2002 1:00 a 52.6 52.6 52.9 52.3 0.0 0.0 --- 0.00 29.946
05/16/2002 1:30 a 52.0 52.0 52.2 51.6 0.0 0.0 --- 0.00 29.946
05/16/2002 2:00 a 51.2 51.2 51.7 50.8 0.0 0.0 --- 0.00 29.950
05/16/2002 2:30 a 50.5 50.5 50.8 49.9 0.0 0.0 --- 0.00 29.953
05/16/2002 3:00 a 49.7 49.7 50.2 49.0 0.0 0.0 --- 0.00 29.961
05/16/2002 3:30 a 48.5 48.5 49.4 48.0 0.0 0.0 --- 0.00 29.968
05/16/2002 4:00 a 48.1 48.1 48.6 47.3 0.0 0.0 --- 0.00 29.965
05/16/2002 4:30 a 47.7 47.7 49.3 47.1 0.0 0.0 --- 0.00 29.964
05/16/2002 5:00 a 50.6 50.6 53.8 47.1 0.0 0.0 --- 0.00 29.971
05/16/2002 5:30 a 46.2 46.2 47.4 45.5 0.0 0.0 --- 0.00 29.975
05/16/2002 6:00 a 45.7 45.7 46.2 45.0 0.0 0.0 --- 0.00 29.974
05/16/2002 6:30 a 46.7 46.7 47.6 45.9 0.0 0.0 --- 0.00 29.974
05/16/2002 7:00 a 49.1 49.1 50.9 47.6 0.0 0.0 --- 0.00 29.979
05/16/2002 7:30 a 52.8 52.8 54.4 50.9 0.0 0.0 --- 0.00 29.981
05/16/2002 8:00 a 55.5 55.5 56.5 54.3 0.0 0.0 --- 0.00 29.967
05/16/2002 8:30 a 58.1 58.1 59.5 56.5 0.0 0.0 --- 0.00 29.960
05/16/2002 9:00 a 61.0 61.0 62.7 59.5 0.0 0.0 --- 0.00 29.955
05/16/2002 9:30 a 64.6 64.6 66.6 62.7 0.0 0.0 --- 0.00 29.945
05/16/2002 10:00 a 68.6 68.6 70.4 66.6 0.0 0.0 --- 0.00 29.921
05/16/2002 10:30 a 72.1 72.1 73.9 70.3 0.0 0.0 --- 0.00 29.907
05/16/2002 11:00 a 74.4 74.4 75.6 73.2 0.0 0.0 --- 0.00 29.904
05/16/2002 11:30 a 76.7 76.7 77.4 75.4 0.0 4.0 SE 0.00 29.887
05/16/2002 12:00 p 78.2 78.2 79.3 77.3 0.0 5.0 SSE 0.00 29.878
05/16/2002 12:30 p 78.6 78.6 80.2 77.5 0.0 5.0 NE 0.00 29.861
05/16/2002 1:00 p 77.4 77.4 79.5 75.9 0.0 3.0 N 0.00 29.853
05/16/2002 1:30 p 80.9 80.9 81.9 79.5 0.0 4.0 ESE 0.00 29.832
05/16/2002 2:00 p 81.2 81.2 83.3 80.1 0.0 7.0 ENE 0.00 29.811
05/16/2002 2:30 p 79.1 79.1 82.5 77.5 0.0 4.0 E 0.00 29.789
05/16/2002 3:00 p 81.7 81.7 82.7 78.7 0.0 4.0 SSE 0.00 29.776
05/16/2002 3:30 p 82.4 82.4 83.1 81.6 0.0 5.0 NE 0.00 29.767
05/16/2002 4:00 p 82.2 82.2 82.9 81.3 0.0 7.0 E 0.00 29.757
05/16/2002 4:30 p 80.9 80.9 81.4 80.4 0.0 5.0 NE 0.00 29.757
05/16/2002 5:00 p 80.3 80.3 80.9 79.4 0.0 2.0 NE 0.00 29.749
05/16/2002 5:30 p 79.1 79.1 79.9 78.0 0.0 3.0 NE 0.00 29.741
05/16/2002 6:00 p 77.9 77.9 78.6 77.3 0.0 1.0 --- 0.00 29.733
05/16/2002 6:30 p 77.0 77.0 77.5 76.3 0.0 0.0 --- 0.00 29.735
05/16/2002 7:00 p 76.3 76.3 76.9 75.3 0.0 5.0 ENE 0.00 29.738
05/16/2002 7:30 p 75.0 75.0 75.5 74.1 0.0 0.0 --- 0.00 29.743
05/16/2002 8:00 p 72.8 72.8 74.1 71.6 0.0 0.0 --- 0.00 29.741
05/16/2002 8:30 p 72.0 72.0 72.4 71.6 0.0 0.0 --- 0.00 29.737
05/16/2002 9:00 p 70.7 70.7 71.6 70.0 0.0 0.0 --- 0.00 29.742
05/16/2002 9:30 p 71.4 71.4 72.8 70.0 0.0 0.0 --- 0.00 29.746
05/16/2002 10:00 p 70.5 70.5 72.5 68.7 0.0 0.0 --- 0.00 29.743
05/16/2002 10:30 p 68.3 68.3 68.7 68.0 0.0 0.0 --- 0.00 29.740
05/16/2002 11:00 p 67.9 67.9 68.1 67.5 0.0 0.0 --- 0.00 29.732
05/16/2002 11:30 p 67.3 67.3 67.8 67.0 0.0 0.0 --- 0.00 29.723
05/17/2002 12:00 a 66.6 66.6 67.0 66.2 0.0 0.0 --- 0.00 29.713
05/17/2002 12:30 a 66.0 66.0 66.3 65.7 0.0 0.0 --- 0.00 29.701
05/17/2002 1:00 a 65.6 65.6 66.1 65.2 0.0 0.0 --- 0.00 29.694
05/17/2002 1:30 a 66.0 66.0 66.2 65.9 0.0 0.0 --- 0.00 29.685
05/17/2002 2:00 a 66.1 66.1 66.2 65.8 0.0 0.0 --- 0.00 29.685
05/17/2002 2:30 a 65.9 65.9 66.1 65.7 0.0 0.0 --- 0.00 29.676
05/17/2002 3:00 a 66.0 66.0 66.2 65.8 0.0 0.0 --- 0.00 29.682
05/17/2002 3:30 a 65.9 65.9 66.3 65.1 0.0 0.0 --- 0.00 29.682
05/17/2002 4:00 a 65.5 65.5 65.8 65.2 0.0 0.0 --- 0.00 29.676
05/17/2002 4:30 a 65.0 65.0 65.6 64.6 0.0 0.0 --- 0.00 29.658
05/17/2002 5:00 a 64.5 64.5 64.7 64.3 0.0 0.0 --- 0.00 29.649
05/17/2002 5:30 a 63.9 63.9 64.3 62.9 0.0 0.0 --- 0.00 29.651
05/17/2002 6:00 a 62.4 62.4 62.9 62.1 0.0 0.0 --- 0.00 29.646
05/17/2002 6:30 a 62.8 62.8 63.2 62.4 0.0 0.0 --- 0.00 29.645
05/17/2002 7:00 a 63.0 63.0 63.4 62.9 0.0 0.0 --- 0.00 29.653
05/17/2002 7:30 a 63.9 63.9 64.3 63.4 0.0 0.0 --- 0.00 29.658
05/17/2002 8:00 a 64.5 64.5 64.8 64.2 0.0 0.0 --- 0.00 29.653
05/17/2002 8:30 a 65.9 65.9 66.6 64.7 0.0 0.0 --- 0.00 29.656
05/17/2002 9:00 a 66.7 66.7 67.3 66.4 0.0 0.0 --- 0.00 29.664
05/17/2002 9:30 a 69.6 69.6 71.4 67.3 0.0 0.0 --- 0.00 29.654
05/17/2002 10:00 a 72.0 72.0 73.8 70.1 0.0 5.0 NNE 0.00 29.660
05/17/2002 10:30 a 74.8 74.8 76.5 73.7 0.0 4.0 ESE 0.00 29.661
05/17/2002 11:00 a 76.1 76.1 77.9 74.6 0.0 6.0 E 0.00 29.660
05/17/2002 11:30 a 76.9 76.9 79.1 75.0 0.0 6.0 SE 0.00 29.661
05/17/2002 12:00 p 75.3 75.3 77.5 74.3 0.0 4.0 NE 0.00 29.663
05/17/2002 12:30 p 75.9 75.9 77.1 74.5 0.0 3.0 ESE 0.00 29.654
05/17/2002 1:00 p 74.4 74.4 76.4 73.3 0.0 4.0 NW 0.00 29.653
05/17/2002 1:30 p 78.8 78.8 81.7 76.0 0.0 0.0 --- 0.00 29.655
05/17/2002 2:00 p 80.2 80.2 82.7 78.2 0.0 0.0 --- 0.00 29.651
05/17/2002 2:30 p 78.9 78.9 81.8 76.3 0.0 1.0 --- 0.00 29.639
05/17/2002 3:00 p 79.2 79.2 82.5 76.9 0.0 4.0 WNW 0.00 29.641
05/17/2002 3:30 p 79.6 79.6 82.4 76.7 0.0 4.0 NNE 0.00 29.632
05/17/2002 4:00 p 78.1 78.1 79.9 77.1 0.0 4.0 N 0.00 29.629
05/17/2002 4:30 p 77.0 77.0 79.6 75.7 0.0 4.0 SE 0.00 29.634
05/17/2002 5:00 p 75.7 75.7 76.1 75.3 0.0 3.0 SE 0.00 29.634
05/17/2002 5:30 p 75.4 75.4 76.1 74.6 0.0 4.0 SE 0.00 29.640
05/17/2002 6:00 p 75.0 75.0 75.9 74.0 0.0 0.0 --- 0.00 29.649
05/17/2002 6:30 p 73.1 73.1 74.0 72.3 0.0 0.0 --- 0.00 29.645
05/17/2002 7:00 p 71.6 71.6 72.3 70.9 0.0 0.0 --- 0.00 29.661
05/17/2002 7:30 p 70.4 70.4 71.0 69.5 0.0 4.0 SE 0.00 29.669
05/17/2002 8:00 p 68.7 68.7 69.5 68.0 0.0 4.0 SE 0.00 29.671
05/17/2002 8:30 p 67.5 67.5 68.1 67.0 0.0 4.0 SE 0.00 29.673
05/17/2002 9:00 p 66.6 66.6 67.0 66.1 0.0 0.0 --- 0.00 29.685
05/17/2002 9:30 p 64.7 64.7 66.1 63.7 0.0 5.0 SE 0.00 29.700
05/17/2002 10:00 p 62.8 62.8 63.7 61.5 0.0 4.0 SE 0.00 29.704
05/17/2002 10:30 p 61.0 61.0 61.5 60.3 0.0 0.0 --- 0.00 29.721
05/17/2002 11:00 p 59.7 59.7 60.4 58.9 0.0 0.0 --- 0.00 29.682
05/17/2002 11:30 p 58.5 58.5 59.0 58.2 0.0 0.0 --- 0.00 29.680
05/18/2002 12:00 a 57.8 57.8 58.3 57.4 0.0 0.0 --- 0.00 29.667
05/18/2002 12:30 a 57.4 57.4 57.7 57.3 0.0 0.0 --- 0.00 29.666
05/18/2002 1:00 a 56.0 56.0 57.6 54.4 0.0 0.0 --- 0.00 29.652
05/18/2002 1:30 a 53.8 53.8 54.5 53.2 0.0 1.0 SSE 0.00 29.661
05/18/2002 2:00 a 52.8 52.8 53.8 52.0 0.0 1.0 --- 0.00 29.639
05/18/2002 2:30 a 51.4 51.4 52.2 50.9 0.0 1.0 SSE 0.00 29.647
05/18/2002 3:00 a 50.9 50.9 51.5 50.3 0.0 1.0 SSE 0.00 29.591
05/18/2002 3:30 a 50.7 50.7 51.1 50.3 0.0 0.0 --- 0.00 29.565
05/18/2002 4:00 a 50.6 50.6 50.8 50.3 0.0 1.0 --- 0.00 29.549
05/18/2002 4:30 a 50.4 50.4 50.6 50.1 0.0 1.0 SSE 0.00 29.540
05/18/2002 5:00 a 50.3 50.3 51.1 49.7 0.0 1.0 --- 0.00 29.533
05/18/2002 5:30 a 49.9 49.9 50.1 49.6 0.0 1.0 --- 0.00 29.501
05/18/2002 6:00 a 49.7 49.7 49.9 49.5 0.0 1.0 --- 0.00 29.480
05/18/2002 6:30 a 49.7 49.7 50.1 49.3 0.0 2.0 --- 0.00 29.445
05/18/2002 7:00 a 49.1 49.1 49.7 48.7 0.0 5.0 S 0.00 29.450
05/18/2002 7:30 a 48.6 48.6 48.9 48.2 0.0 4.0 S 0.00 29.448
05/18/2002 8:00 a 48.1 48.1 48.5 47.6 0.0 2.0 NE 0.00 29.468
05/18/2002 8:30 a 47.7 47.7 50.9 47.0 0.0 2.0 NE 0.00 29.472
05/18/2002 9:00 a 46.2 46.2 49.2 44.8 0.0 5.0 SSE 0.00 29.492
05/18/2002 9:30 a 45.3 45.3 48.1 44.2 0.0 3.0 SSE 3.32 29.487
05/18/2002 10:00 a 44.6 44.6 47.0 43.9 0.0 3.0 NNE 0.00 29.487
05/18/2002 10:30 a 45.3 45.3 46.1 44.5 0.0 5.0 SSE 0.00 29.505
05/18/2002 11:00 a 46.2 46.2 46.6 45.6 0.0 6.0 SSE 0.00 29.527
05/18/2002 11:30 a 45.8 45.8 46.4 45.4 0.0 7.0 SSE 0.00 29.543
05/18/2002 12:00 p 45.7 45.7 46.2 45.4 1.0 9.0 SSE 0.00 29.558
05/18/2002 12:30 p 47.0 47.0 48.9 45.9 1.0 6.0 SSE 0.00 29.580
05/18/2002 1:00 p 49.5 49.5 50.6 48.5 1.0 6.0 SSE 0.00 29.599
05/18/2002 1:30 p 50.6 50.6 51.2 49.8 1.0 7.0 SSE 0.00 29.636
05/18/2002 2:00 p 50.9 50.9 51.7 50.3 1.0 6.0 SSE 0.00 29.649
05/18/2002 2:30 p 50.2 50.2 50.7 49.6 1.0 7.0 SSE 0.00 29.668
05/18/2002 3:00 p 50.8 50.8 51.8 49.9 0.0 8.0 SSE 0.00 29.665
05/18/2002 3:30 p 51.9 51.9 52.6 51.1 0.0 4.0 SSE 0.00 29.680
05/18/2002 4:00 p 51.9 51.9 53.7 51.1 0.0 7.0 SE 0.00 29.689
05/18/2002 4:30 p 54.3 54.3 55.6 53.0 0.0 8.0 SSE 0.00 29.682
05/18/2002 5:00 p 53.7 53.7 54.3 53.1 0.0 2.0 SSE 0.00 29.703
05/18/2002 5:30 p 54.4 54.4 55.5 53.8 0.0 0.0 --- 0.00 29.704
05/18/2002 6:00 p 55.1 55.1 56.1 54.4 0.0 0.0 --- 0.00 29.710
05/18/2002 6:30 p 54.5 54.5 55.1 54.1 0.0 0.0 --- 0.00 29.725
05/18/2002 7:00 p 54.7 54.7 55.3 54.3 0.0 6.0 SSE 0.00 29.743
05/18/2002 7:30 p 54.3 54.3 55.3 52.7 0.0 5.0 SSE 0.00 29.766
05/18/2002 8:00 p 52.8 52.8 53.0 52.5 0.0 3.0 SSE 0.00 29.787
05/18/2002 8:30 p 52.1 52.1 52.8 51.2 0.0 4.0 SSE 0.00 29.804
05/18/2002 9:00 p 50.2 50.2 51.2 49.3 0.0 5.0 SSE 0.00 29.817
05/18/2002 9:30 p 49.0 49.0 49.4 48.5 0.0 0.0 --- 0.00 29.837
05/18/2002 10:00 p 48.2 48.2 48.7 47.7 0.0 0.0 --- 0.00 29.852
05/18/2002 10:30 p 47.7 47.7 48.1 47.3 0.0 4.0 SSE 0.00 29.850
05/18/2002 11:00 p 47.1 47.1 47.8 46.1 0.0 0.0 --- 0.00 29.862
05/18/2002 11:30 p 45.4 45.4 46.1 44.5 0.0 0.0 --- 0.00 29.877
05/19/2002 12:00 a 43.9 43.9 44.5 42.9 0.0 0.0 --- 0.00 29.885
05/19/2002 12:30 a 42.9 42.9 43.3 42.5 0.0 0.0 --- 0.00 29.890
05/19/2002 1:00 a 42.4 42.4 42.9 41.9 0.0 0.0 --- 0.00 29.892
05/19/2002 1:30 a 41.7 41.7 42.1 41.0 0.0 0.0 --- 0.00 29.894
05/19/2002 2:00 a 40.7 40.7 41.6 39.9 0.0 0.0 --- 0.00 29.898
05/19/2002 2:30 a 40.3 40.3 41.1 39.7 0.0 0.0 --- 0.00 29.906
05/19/2002 3:00 a 39.6 39.6 40.5 38.8 0.0 0.0 --- 0.00 29.915
05/19/2002 3:30 a 38.9 38.9 39.7 38.4 0.0 0.0 --- 0.00 29.919
05/19/2002 4:00 a 38.3 38.3 38.9 37.6 0.0 0.0 --- 0.00 29.922
05/19/2002 4:30 a 37.4 37.4 38.1 37.0 0.0 0.0 --- 0.00 29.926
05/19/2002 5:00 a 37.3 37.3 38.0 36.3 0.0 0.0 --- 0.00 29.941
05/19/2002 5:30 a 37.5 37.5 38.1 36.9 0.0 0.0 --- 0.00 29.943
05/19/2002 6:00 a 37.3 37.3 38.0 36.7 0.0 0.0 --- 0.00 29.946
05/19/2002 6:30 a 37.8 37.8 38.9 37.0 0.0 0.0 --- 0.00 29.954
05/19/2002 7:00 a 40.5 40.5 43.4 38.3 0.0 0.0 --- 0.00 29.975
05/19/2002 7:30 a 44.9 44.9 47.3 43.4 0.0 3.0 SSE 0.00 29.994
05/19/2002 8:00 a 47.6 47.6 48.6 46.1 0.0 0.0 --- 0.00 29.992
05/19/2002 8:30 a 47.0 47.0 47.8 45.9 0.0 3.0 SSE 0.00 29.989
05/19/2002 9:00 a 49.0 49.0 49.8 47.7 0.0 3.0 SSE 0.00 29.988
05/19/2002 9:30 a 50.5 50.5 51.4 49.4 0.0 3.0 SE 0.00 29.987
05/19/2002 10:00 a 52.3 52.3 53.2 51.1 0.0 1.0 SE 0.00 29.988
05/19/2002 10:30 a 54.3 54.3 56.5 52.8 0.0 5.0 SE 0.00 29.986
05/19/2002 11:00 a 55.9 55.9 58.9 53.4 0.0 4.0 ESE 0.00 29.985
05/19/2002 11:30 a 57.2 57.2 59.3 54.8 0.0 5.0 NNW 0.00 29.981
05/19/2002 12:00 p 57.9 57.9 59.1 56.0 0.0 5.0 SE 0.00 29.983
05/19/2002 12:30 p 57.3 57.3 58.8 55.8 0.0 6.0 SE 0.00 29.976
05/19/2002 1:00 p 59.4 59.4 61.3 57.5 0.0 5.0 SE 0.00 29.970
05/19/2002 1:30 p 59.7 59.7 62.2 57.3 0.0 4.0 SSE 0.00 29.963
05/19/2002 2:00 p 61.9 61.9 64.6 58.2 0.0 6.0 SSE 0.00 29.961
05/19/2002 2:30 p 63.9 63.9 66.8 59.8 0.0 4.0 SE 0.00 29.951
05/19/2002 3:00 p 65.3 65.3 68.3 60.4 0.0 4.0 SE 0.00 29.941
05/19/2002 3:30 p 60.0 60.0 61.7 58.2 0.0 4.0 SE 0.00 29.944
05/19/2002 4:00 p 62.3 62.3 66.1 58.3 0.0 3.0 NE 0.00 29.940
05/19/2002 4:30 p 62.4 62.4 65.8 59.3 0.0 1.0 --- 0.00 29.947
05/19/2002 5:00 p 60.1 60.1 61.5 59.0 0.0 2.0 ESE 0.00 29.939
05/19/2002 5:30 p 61.7 61.7 63.0 59.6 0.0 5.0 SE 0.00 29.937
05/19/2002 6:00 p 59.3 59.3 60.0 58.3 0.0 4.0 SE 0.00 29.942
05/19/2002 6:30 p 59.8 59.8 60.3 59.1 0.0 3.0 E 0.00 29.951
05/19/2002 7:00 p 58.4 58.4 59.5 57.2 0.0 4.0 SSE 0.00 29.963
05/19/2002 7:30 p 56.5 56.5 57.2 55.9 0.0 4.0 SE 0.00 29.976
05/19/2002 8:00 p 55.1 55.1 55.9 54.4 0.0 1.0 --- 0.00 29.986
05/19/2002 8:30 p 53.7 53.7 54.4 53.2 0.0 0.0 --- 0.00 30.002
05/19/2002 9:00 p 52.8 52.8 53.3 52.0 0.0 0.0 --- 0.00 30.010
05/19/2002 9:30 p 51.7 51.7 52.1 51.3 0.0 0.0 --- 0.00 30.024
05/19/2002 10:00 p 51.3 51.3 52.1 50.9 0.0 0.0 --- 0.00 30.032
05/19/2002 10:30 p 52.4 52.4 54.8 50.3 0.0 3.0 SE 0.00 30.035
05/19/2002 11:00 p 49.5 49.5 50.6 49.0 0.0 0.0 --- 0.00 30.028
05/19/2002 11:30 p 49.1 49.1 49.4 48.9 0.0 0.0 --- 0.00 30.026
05/20/2002 12:00 a 49.4 49.4 49.7 49.1 0.0 0.0 --- 0.00 30.026
05/20/2002 12:30 a 49.2 49.2 49.5 48.4 0.0 0.0 --- 0.00 30.031
05/20/2002 1:00 a 47.4 47.4 48.4 46.0 0.0 0.0 --- 0.00 30.031
05/20/2002 1:30 a 45.2 45.2 46.0 43.7 0.0 0.0 --- 0.00 30.034
05/20/2002 2:00 a 43.2 43.2 43.8 42.9 0.0 0.0 --- 0.00 30.040
05/20/2002 2:30 a 42.5 42.5 43.8 41.7 0.0 0.0 --- 0.00 30.031
05/20/2002 3:00 a 41.3 41.3 42.3 40.8 0.0 0.0 --- 0.00 30.034
05/20/2002 3:30 a 40.8 40.8 41.5 40.1 0.0 0.0 --- 0.00 30.036
05/20/2002 4:00 a 39.5 39.5 40.4 38.7 0.0 0.0 --- 0.00 30.040
05/20/2002 4:30 a 39.2 39.2 39.8 38.9 0.0 0.0 --- 0.00 30.038
05/20/2002 5:00 a 38.3 38.3 39.1 37.6 0.0 0.0 --- 0.00 30.040
05/20/2002 5:30 a 38.3 38.3 38.8 37.7 0.0 0.0 --- 0.00 30.048
05/20/2002 6:00 a 38.1 38.1 38.8 37.3 0.0 0.0 --- 0.00 30.057
05/20/2002 6:30 a 38.9 38.9 39.7 38.4 0.0 0.0 --- 0.00 30.061
05/20/2002 7:00 a 41.3 41.3 43.8 39.7 0.0 0.0 --- 0.00 30.063
05/20/2002 7:30 a 45.0 45.0 46.0 43.8 0.0 0.0 --- 0.00 30.061
05/20/2002 8:00 a 47.0 47.0 48.1 45.9 0.0 0.0 --- 0.00 30.070
05/20/2002 8:30 a 48.7 48.7 49.5 47.9 0.0 0.0 --- 0.00 30.068
05/20/2002 9:00 a 49.6 49.6 50.8 48.6 0.0 4.0 SE 0.00 30.068
05/20/2002 9:30 a 51.7 51.7 52.7 50.6 0.0 4.0 SE 0.00 30.072
05/20/2002 10:00 a 53.7 53.7 56.0 52.4 0.0 5.0 SE 0.00 30.062
05/20/2002 10:30 a 55.2 55.2 57.1 54.1 0.0 6.0 SSE 0.00 30.061
05/20/2002 11:00 a 55.4 55.4 56.7 53.5 0.0 5.0 SSE 0.00 30.058
05/20/2002 11:30 a 57.1 57.1 59.6 54.8 0.0 5.0 SSE 0.00 30.047
05/20/2002 12:00 p 56.1 56.1 58.1 54.4 0.0 4.0 SSE 0.00 30.039
05/20/2002 12:30 p 57.6 57.6 61.8 55.6 0.0 4.0 SE 0.00 30.034
05/20/2002 1:00 p 57.1 57.1 59.5 56.2 0.0 0.0 --- 0.00 30.031
05/20/2002 1:30 p 57.4 57.4 59.9 56.3 0.0 5.0 SE 0.00 30.021
05/20/2002 2:00 p 57.7 57.7 59.4 56.8 0.0 3.0 SE 0.00 30.016
05/20/2002 2:30 p 58.2 58.2 61.4 56.7 0.0 5.0 SSE 0.00 30.003
05/20/2002 3:00 p 56.0 56.0 58.8 54.8 0.0 3.0 SSE 0.00 30.003
05/20/2002 3:30 p 58.0 58.0 60.1 56.2 0.0 7.0 SSE 0.00 30.002
05/20/2002 4:00 p 58.9 58.9 60.6 57.5 0.0 4.0 SSE 0.00 29.993
05/20/2002 4:30 p 56.7 56.7 58.1 55.8 0.0 3.0 SSE 0.00 29.993
05/20/2002 5:00 p 57.7 57.7 58.9 56.3 0.0 0.0 --- 0.00 29.990
05/20/2002 5:30 p 57.2 57.2 58.4 56.1 0.0 4.0 S 0.00 29.993
05/20/2002 6:00 p 56.6 56.6 57.4 55.9 0.0 3.0 NNE 0.00 29.991
05/20/2002 6:30 p 56.2 56.2 56.6 55.7 0.0 1.0 --- 0.00 29.996
05/20/2002 7:00 p 55.1 55.1 55.7 54.4 0.0 0.0 --- 0.00 30.005
05/20/2002 7:30 p 53.5 53.5 54.5 52.7 0.0 4.0 SSE 0.00 30.018
05/20/2002 8:00 p 52.8 52.8 53.1 52.5 0.0 3.0 SSE 0.00 30.025
05/20/2002 8:30 p 52.4 52.4 52.7 51.7 0.0 0.0 --- 0.00 30.037
05/20/2002 9:00 p 51.3 51.3 51.9 50.4 0.0 2.0 SSE 0.00 30.044
05/20/2002 9:30 p 49.9 49.9 50.5 49.0 0.0 0.0 --- 0.00 30.049
05/20/2002 10:00 p 48.5 48.5 49.1 47.8 0.0 0.0 --- 0.00 30.046
05/20/2002 10:30 p 48.4 48.4 48.8 47.8 0.0 0.0 --- 0.00 30.046
05/20/2002 11:00 p 47.9 47.9 48.5 47.4 0.0 0.0 --- 0.00 30.052
05/20/2002 11:30 p 47.3 47.3 48.0 45.9 0.0 0.0 --- 0.00 30.058
05/21/2002 12:00 a 45.2 45.2 46.1 44.2 0.0 0.0 --- 0.00 30.063
05/21/2002 12:30 a 44.3 44.3 45.0 43.8 0.0 0.0 --- 0.00 30.062
05/21/2002 1:00 a 44.0 44.0 44.2 43.6 0.0 0.0 --- 0.00 30.057
05/21/2002 1:30 a 43.4 43.4 43.9 43.0 0.0 0.0 --- 0.00 30.054
05/21/2002 2:00 a 42.4 42.4 43.2 41.7 0.0 0.0 --- 0.00 30.050
05/21/2002 2:30 a 41.9 41.9 42.5 41.1 0.0 0.0 --- 0.00 30.053
05/21/2002 3:00 a 41.2 41.2 41.7 40.5 0.0 0.0 --- 0.00 30.048
05/21/2002 3:30 a 40.9 40.9 41.4 40.2 0.0 0.0 --- 0.00 30.057
05/21/2002 4:00 a 40.4 40.4 40.7 40.1 0.0 0.0 --- 0.00 30.058
05/21/2002 4:30 a 40.0 40.0 40.8 39.1 0.0 0.0 --- 0.00 30.055
05/21/2002 5:00 a 39.6 39.6 40.1 39.1 0.0 0.0 --- 0.00 30.060
05/21/2002 5:30 a 38.6 38.6 39.4 37.3 0.0 0.0 --- 0.00 30.070
05/21/2002 6:00 a 38.5 38.5 39.1 37.9 0.0 0.0 --- 0.00 30.087
05/21/2002 6:30 a 39.8 39.8 40.8 38.9 0.0 0.0 --- 0.00 30.091
05/21/2002 7:00 a 41.7 41.7 42.9 40.8 0.0 0.0 --- 0.00 30.097
05/21/2002 7:30 a 44.9 44.9 46.1 42.9 0.0 3.0 SSE 0.00 30.106
05/21/2002 8:00 a 46.9 46.9 47.5 46.1 0.0 0.0 --- 0.00 30.114
05/21/2002 8:30 a 48.1 48.1 48.9 47.4 0.0 5.0 SSE 0.00 30.109
05/21/2002 9:00 a 49.5 49.5 50.7 48.7 0.0 5.0 SSE 0.00 30.112
05/21/2002 9:30 a 51.1 51.1 52.0 49.6 1.0 7.0 SE 0.00 30.109
05/21/2002 10:00 a 53.1 53.1 54.1 51.8 0.0 4.0 SSE 0.00 30.105
05/21/2002 10:30 a 55.0 55.0 56.5 53.5 0.0 4.0 SSE 0.00 30.107
05/21/2002 11:00 a 56.8 56.8 58.6 54.5 0.0 5.0 SSE 0.00 30.102
05/21/2002 11:30 a 57.9 57.9 60.4 55.2 0.0 0.0 --- 0.00 30.099
05/21/2002 12:00 p 59.0 59.0 62.6 56.5 0.0 5.0 SSE 0.00 30.089
05/21/2002 12:30 p 57.7 57.7 59.8 56.3 0.0 5.0 SSE 0.00 30.081
05/21/2002 1:00 p 57.9 57.9 60.9 55.9 0.0 3.0 SSE 0.00 30.071
05/21/2002 1:30 p 58.1 58.1 61.7 56.9 0.0 5.0 SSE 0.00 30.063
05/21/2002 2:00 p 60.3 60.3 62.8 56.8 0.0 4.0 SE 0.00 30.059
05/21/2002 2:30 p 60.1 60.1 64.7 57.3 0.0 6.0 SSE 0.00 30.055
05/21/2002 3:00 p 62.5 62.5 64.8 61.1 1.0 6.0 SSE 0.00 30.053
05/21/2002 3:30 p 62.6 62.6 66.1 59.1 0.0 4.0 SSE 0.00 30.051
05/21/2002 4:00 p 59.8 59.8 62.1 58.5 0.0 2.0 SE 0.00 30.048
05/21/2002 4:30 p 60.9 60.9 61.7 58.4 0.0 5.0 SSE 0.00 30.042
05/21/2002 5:00 p 62.1 62.1 63.4 60.6 0.0 5.0 SSE 0.00 30.044
05/21/2002 5:30 p 61.1 61.1 61.8 60.3 0.0 5.0 SSE 0.00 30.040
05/21/2002 6:00 p 59.6 59.6 61.4 58.7 0.0 3.0 SSE 0.00 30.050
05/21/2002 6:30 p 59.0 59.0 59.5 58.5 0.0 0.0 --- 0.00 30.059
05/21/2002 7:00 p 56.7 56.7 58.5 55.4 0.0 8.0 SSE 0.00 30.074
05/21/2002 7:30 p 57.2 57.2 57.8 56.5 0.0 4.0 SSE 0.00 30.085
05/21/2002 8:00 p 56.3 56.3 58.4 54.9 1.0 6.0 SSE 0.00 30.095
05/21/2002 8:30 p 53.8 53.8 54.9 53.0 0.0 0.0 --- 0.00 30.106
05/21/2002 9:00 p 52.7 52.7 54.1 52.1 0.0 0.0 --- 0.00 30.116
05/21/2002 9:30 p 52.1 52.1 57.2 49.1 0.0 0.0 --- 0.00 30.124
05/21/2002 10:00 p 48.6 48.6 49.3 47.8 0.0 0.0 --- 0.00 30.129
05/21/2002 10:30 p 47.8 47.8 48.4 47.2 0.0 0.0 --- 0.00 30.144
05/21/2002 11:00 p 46.8 46.8 47.6 45.9 0.0 0.0 --- 0.00 30.149
05/21/2002 11:30 p 45.9 45.9 46.3 45.6 0.0 0.0 --- 0.00 30.158
05/22/2002 12:00 a 45.2 45.2 45.7 44.7 0.0 0.0 --- 0.00 30.167
05/22/2002 12:30 a 44.5 44.5 45.1 44.1 0.0 0.0 --- 0.00 30.174
05/22/2002 1:00 a 43.5 43.5 44.3 43.1 0.0 0.0 --- 0.00 30.172
05/22/2002 1:30 a 43.0 43.0 43.5 42.4 0.0 0.0 --- 0.00 30.173
05/22/2002 2:00 a 42.1 42.1 42.9 41.5 0.0 0.0 --- 0.00 30.173
05/22/2002 2:30 a 41.4 41.4 41.9 40.9 0.0 0.0 --- 0.00 30.175
05/22/2002 3:00 a 40.7 40.7 41.0 40.2 0.0 0.0 --- 0.00 30.178
05/22/2002 3:30 a 40.8 40.8 41.3 40.3 0.0 0.0 --- 0.00 30.181
05/22/2002 4:00 a 40.3 40.3 41.0 39.7 0.0 0.0 --- 0.00 30.180
05/22/2002 4:30 a 39.7 39.7 40.4 38.8 0.0 0.0 --- 0.00 30.184
05/22/2002 5:00 a 39.2 39.2 40.0 38.5 0.0 0.0 --- 0.00 30.188
05/22/2002 5:30 a 38.8 38.8 39.4 38.2 0.0 0.0 --- 0.00 30.201
05/22/2002 6:00 a 38.9 38.9 39.6 38.3 0.0 0.0 --- 0.00 30.212
05/22/2002 6:30 a 40.1 40.1 40.8 39.0 0.0 0.0 --- 0.00 30.218
05/22/2002 7:00 a 41.8 41.8 43.7 40.7 0.0 0.0 --- 0.00 30.222
05/22/2002 7:30 a 47.3 47.3 49.8 43.7 0.0 0.0 --- 0.00 30.223
05/22/2002 8:00 a 50.6 50.6 51.7 49.7 0.0 8.0 SSE 0.00 30.231
05/22/2002 8:30 a 52.0 52.0 52.7 51.3 0.0 6.0 SSE 0.00 30.240
05/22/2002 9:00 a 53.8 53.8 54.9 52.5 0.0 3.0 SSE 0.00 30.241
05/22/2002 9:30 a 56.0 56.0 57.5 54.7 1.0 5.0 SSE 0.00 30.235
05/22/2002 10:00 a 58.3 58.3 59.3 57.1 0.0 1.0 SSE 0.00 30.230
05/22/2002 10:30 a 60.5 60.5 61.6 59.3 0.0 4.0 SSE 0.00 30.228
05/22/2002 11:00 a 62.3 62.3 63.7 60.8 0.0 5.0 SSE 0.00 30.222
05/22/2002 11:30 a 63.6 63.6 65.1 62.0 0.0 4.0 SSE 0.00 30.217
05/22/2002 12:00 p 65.3 65.3 66.5 64.0 1.0 5.0 SSE 0.00 30.210
05/22/2002 12:30 p 66.7 66.7 67.9 64.4 0.0 1.0 SSE 0.00 30.201
05/22/2002 1:00 p 67.8 67.8 69.2 66.6 0.0 5.0 SE 0.00 30.194
05/22/2002 1:30 p 68.7 68.7 70.0 67.3 0.0 4.0 SE 0.00 30.177
05/22/2002 2:00 p 69.3 69.3 70.6 68.5 0.0 4.0 SE 0.00 30.167
05/22/2002 2:30 p 69.9 69.9 71.9 68.4 0.0 2.0 SE 0.10 30.158
05/22/2002 3:00 p 72.5 72.5 73.9 70.8 0.0 4.0 SE 0.03 30.146
05/22/2002 3:30 p 72.7 72.7 74.5 70.3 0.0 4.0 S 0.03 30.141
05/22/2002 4:00 p 71.2 71.2 72.8 70.1 0.0 2.0 S 0.00 30.130
05/22/2002 4:30 p 70.9 70.9 72.3 69.5 0.0 0.0 --- 0.00 30.119
05/22/2002 5:00 p 70.1 70.1 71.2 68.5 0.0 4.0 S 0.00 30.113
05/22/2002 5:30 p 69.4 69.4 69.8 68.9 0.0 0.0 --- 0.00 30.106
05/22/2002 6:00 p 68.6 68.6 69.4 67.8 0.0 0.0 --- 0.00 30.111
05/22/2002 6:30 p 67.3 67.3 68.0 66.7 0.0 0.0 --- 0.00 30.108
05/22/2002 7:00 p 66.2 66.2 66.8 65.7 0.0 0.0 --- 0.00 30.109
05/22/2002 7:30 p 65.1 65.1 65.7 64.3 0.0 0.0 --- 0.00 30.116
05/22/2002 8:00 p 63.6 63.6 64.4 62.8 0.0 0.0 --- 0.00 30.118
05/22/2002 8:30 p 62.1 62.1 62.8 61.4 0.0 0.0 --- 0.00 30.121
05/22/2002 9:00 p 60.7 60.7 61.4 59.8 0.0 0.0 --- 0.00 30.129
05/22/2002 9:30 p 60.1 60.1 60.3 60.0 0.0 1.0 SSW 0.00 30.136
05/22/2002 10:00 p 60.6 60.6 62.2 59.7 0.0 0.0 --- 0.00 30.138
05/22/2002 10:30 p 60.0 60.0 61.9 58.6 0.0 0.0 --- 0.00 30.139
05/22/2002 11:00 p 58.0 58.0 58.6 57.2 0.0 0.0 --- 0.00 30.141
05/22/2002 11:30 p 57.0 57.0 57.5 56.7 0.0 0.0 --- 0.00 30.143
05/23/2002 12:00 a 56.7 56.7 57.2 56.2 0.0 0.0 --- 0.00 30.139
05/23/2002 12:30 a 56.0 56.0 56.5 55.4 0.0 0.0 --- 0.00 30.136
05/23/2002 1:00 a 55.3 55.3 55.9 54.8 0.0 0.0 --- 0.00 30.128
05/23/2002 1:30 a 54.6 54.6 55.0 54.2 0.0 0.0 --- 0.00 30.124
05/23/2002 2:00 a 54.2 54.2 54.7 53.6 0.0 0.0 --- 0.00 30.120
05/23/2002 2:30 a 53.8 53.8 55.0 53.4 0.0 0.0 --- 0.00 30.112
05/23/2002 3:00 a 53.9 53.9 54.4 53.4 0.0 0.0 --- 0.00 30.105
05/23/2002 3:30 a 53.5 53.5 54.4 52.5 0.0 0.0 --- 0.00 30.104
05/23/2002 4:00 a 52.7 52.7 53.2 52.3 0.0 0.0 --- 0.00 30.103
05/23/2002 4:30 a 52.5 52.5 53.5 51.7 0.0 0.0 --- 0.00 30.104
05/23/2002 5:00 a 51.9 51.9 52.4 51.4 0.0 0.0 --- 0.00 30.102
05/23/2002 5:30 a 51.6 51.6 53.1 50.8 0.0 0.0 --- 0.00 30.100
05/23/2002 6:00 a 51.5 51.5 52.5 50.7 0.0 0.0 --- 0.00 30.104
05/23/2002 6:30 a 51.8 51.8 52.3 51.5 0.0 0.0 --- 0.00 30.111
05/23/2002 7:00 a 52.9 52.9 54.0 52.0 0.0 0.0 --- 0.00 30.111
05/23/2002 7:30 a 55.4 55.4 56.7 54.0 0.0 0.0 --- 0.00 30.119
05/23/2002 8:00 a 57.7 57.7 58.5 56.6 0.0 0.0 --- 0.00 30.119
05/23/2002 8:30 a 59.4 59.4 60.4 58.5 0.0 0.0 --- 0.00 30.116
05/23/2002 9:00 a 61.4 61.4 62.6